<?xml version="1.0" encoding="UTF-8"?>
<gpx version="1.1" creator="https://www.youtrack.es" xsi:schemaLocation="http://www.topografix.com/GPX/1/1 http://www.topografix.com/GPX/1/1/gpx.xsd http://www.garmin.com/xmlschemas/GpxExtensions/v3 http://www.garmin.com/xmlschemas/GpxExtensionsv3.xsd http://www.garmin.com/xmlschemas/TrackPointExtension/v1 http://www.garmin.com/xmlschemas/TrackPointExtensionv1.xsd" xmlns:gpxtpx="http://www.garmin.com/xmlschemas/TrackPointExtension/v1" xmlns:gpxx="http://www.garmin.com/xmlschemas/GpxExtensions/v3" xmlns:xsi="http://www.w3.org/2001/XMLSchema-instance">
  <metadata>
    <link href="https://www.youtrack.es">
      <text>YouTrack.es</text>
    </link>
    <time>2026-05-08T14:54:20Z</time>
  </metadata>
  <trk>
    <src>https://www.youtrack.es</src>
    <link href="https://www.youtrack.es/ruta/15653-r1-volta-a-vallfogona-de-riucorb-ok">
      <text>YouTrack.es</text>
    </link>
    <trkseg>
      <trkpt lat="41.563927" lon="1.237607">
        <ele>563.497</ele>
        <time>2020-07-28T15:45:51Z</time>
      </trkpt>
      <trkpt lat="41.564454" lon="1.238440">
        <ele>568.223</ele>
        <time>2020-07-28T15:51:47Z</time>
      </trkpt>
      <trkpt lat="41.564710" lon="1.237474">
        <ele>577.825</ele>
        <time>2020-07-28T15:55:00Z</time>
      </trkpt>
      <trkpt lat="41.564686" lon="1.237676">
        <ele>580.208</ele>
        <time>2020-07-28T15:57:29Z</time>
      </trkpt>
      <trkpt lat="41.564981" lon="1.235283">
        <ele>567.394</ele>
        <time>2020-07-28T16:03:55Z</time>
      </trkpt>
      <trkpt lat="41.564872" lon="1.234127">
        <ele>574.523</ele>
        <time>2020-07-28T16:07:18Z</time>
      </trkpt>
      <trkpt lat="41.564380" lon="1.232127">
        <ele>594.710</ele>
        <time>2020-07-28T16:09:20Z</time>
      </trkpt>
      <trkpt lat="41.564476" lon="1.232307">
        <ele>596.112</ele>
        <time>2020-07-28T16:10:18Z</time>
      </trkpt>
      <trkpt lat="41.564743" lon="1.231822">
        <ele>600.456</ele>
        <time>2020-07-28T16:11:08Z</time>
      </trkpt>
      <trkpt lat="41.565982" lon="1.231534">
        <ele>623.574</ele>
        <time>2020-07-28T16:13:21Z</time>
      </trkpt>
      <trkpt lat="41.566336" lon="1.231208">
        <ele>636.034</ele>
        <time>2020-07-28T16:14:09Z</time>
      </trkpt>
      <trkpt lat="41.566383" lon="1.230432">
        <ele>649.979</ele>
        <time>2020-07-28T16:16:41Z</time>
      </trkpt>
      <trkpt lat="41.566168" lon="1.229879">
        <ele>651.946</ele>
        <time>2020-07-28T16:17:25Z</time>
      </trkpt>
      <trkpt lat="41.566389" lon="1.229280">
        <ele>658.688</ele>
        <time>2020-07-28T16:18:26Z</time>
      </trkpt>
      <trkpt lat="41.567116" lon="1.228373">
        <ele>658.116</ele>
        <time>2020-07-28T16:20:22Z</time>
      </trkpt>
      <trkpt lat="41.568143" lon="1.227763">
        <ele>656.708</ele>
        <time>2020-07-28T16:22:27Z</time>
      </trkpt>
      <trkpt lat="41.568531" lon="1.226454">
        <ele>661.559</ele>
        <time>2020-07-28T16:23:41Z</time>
      </trkpt>
      <trkpt lat="41.569657" lon="1.225043">
        <ele>656.248</ele>
        <time>2020-07-28T16:25:21Z</time>
      </trkpt>
      <trkpt lat="41.569819" lon="1.224511">
        <ele>657.645</ele>
        <time>2020-07-28T16:25:50Z</time>
      </trkpt>
      <trkpt lat="41.569631" lon="1.222251">
        <ele>653.347</ele>
        <time>2020-07-28T16:28:38Z</time>
      </trkpt>
      <trkpt lat="41.569655" lon="1.219683">
        <ele>653.851</ele>
        <time>2020-07-28T16:31:15Z</time>
      </trkpt>
      <trkpt lat="41.570015" lon="1.219630">
        <ele>648.079</ele>
        <time>2020-07-28T16:31:45Z</time>
      </trkpt>
      <trkpt lat="41.570467" lon="1.219340">
        <ele>639.419</ele>
        <time>2020-07-28T16:32:18Z</time>
      </trkpt>
      <trkpt lat="41.571007" lon="1.218407">
        <ele>638.444</ele>
        <time>2020-07-28T16:33:15Z</time>
      </trkpt>
      <trkpt lat="41.572179" lon="1.217170">
        <ele>639.449</ele>
        <time>2020-07-28T16:36:17Z</time>
      </trkpt>
      <trkpt lat="41.571776" lon="1.215310">
        <ele>630.702</ele>
        <time>2020-07-28T16:38:34Z</time>
      </trkpt>
      <trkpt lat="41.571073" lon="1.214229">
        <ele>624.522</ele>
        <time>2020-07-28T16:39:51Z</time>
      </trkpt>
      <trkpt lat="41.570411" lon="1.212204">
        <ele>620.608</ele>
        <time>2020-07-28T16:41:37Z</time>
      </trkpt>
      <trkpt lat="41.570091" lon="1.211893">
        <ele>621.129</ele>
        <time>2020-07-28T16:42:04Z</time>
      </trkpt>
      <trkpt lat="41.570256" lon="1.212330">
        <ele>613.998</ele>
        <time>2020-07-28T16:42:53Z</time>
      </trkpt>
      <trkpt lat="41.570204" lon="1.213185">
        <ele>602.815</ele>
        <time>2020-07-28T16:43:46Z</time>
      </trkpt>
      <trkpt lat="41.569862" lon="1.212924">
        <ele>596.627</ele>
        <time>2020-07-28T16:44:31Z</time>
      </trkpt>
      <trkpt lat="41.569450" lon="1.212929">
        <ele>589.911</ele>
        <time>2020-07-28T16:45:02Z</time>
      </trkpt>
      <trkpt lat="41.569124" lon="1.212636">
        <ele>586.079</ele>
        <time>2020-07-28T16:45:31Z</time>
      </trkpt>
      <trkpt lat="41.568817" lon="1.211559">
        <ele>584.689</ele>
        <time>2020-07-28T16:46:31Z</time>
      </trkpt>
      <trkpt lat="41.568467" lon="1.211190">
        <ele>584.614</ele>
        <time>2020-07-28T16:47:02Z</time>
      </trkpt>
      <trkpt lat="41.567750" lon="1.211168">
        <ele>562.955</ele>
        <time>2020-07-28T16:48:16Z</time>
      </trkpt>
      <trkpt lat="41.567908" lon="1.210905">
        <ele>560.507</ele>
        <time>2020-07-28T16:48:40Z</time>
      </trkpt>
      <trkpt lat="41.567683" lon="1.210821">
        <ele>559.617</ele>
        <time>2020-07-28T16:48:57Z</time>
      </trkpt>
      <trkpt lat="41.566931" lon="1.210901">
        <ele>552.908</ele>
        <time>2020-07-28T16:49:55Z</time>
      </trkpt>
      <trkpt lat="41.566681" lon="1.211411">
        <ele>538.940</ele>
        <time>2020-07-28T16:50:54Z</time>
      </trkpt>
      <trkpt lat="41.566411" lon="1.212986">
        <ele>534.169</ele>
        <time>2020-07-28T16:52:22Z</time>
      </trkpt>
      <trkpt lat="41.565097" lon="1.215904">
        <ele>525.556</ele>
        <time>2020-07-28T16:55:07Z</time>
      </trkpt>
      <trkpt lat="41.565155" lon="1.216974">
        <ele>544.298</ele>
        <time>2020-07-28T16:58:17Z</time>
      </trkpt>
      <trkpt lat="41.564687" lon="1.217250">
        <ele>537.092</ele>
        <time>2020-07-28T16:59:02Z</time>
      </trkpt>
      <trkpt lat="41.563231" lon="1.219091">
        <ele>534.150</ele>
        <time>2020-07-28T17:01:15Z</time>
      </trkpt>
      <trkpt lat="41.562201" lon="1.219862">
        <ele>524.070</ele>
        <time>2020-07-28T17:02:41Z</time>
      </trkpt>
      <trkpt lat="41.561829" lon="1.220686">
        <ele>533.165</ele>
        <time>2020-07-28T17:03:32Z</time>
      </trkpt>
      <trkpt lat="41.561628" lon="1.221606">
        <ele>535.582</ele>
        <time>2020-07-28T17:04:23Z</time>
      </trkpt>
      <trkpt lat="41.561754" lon="1.222308">
        <ele>539.443</ele>
        <time>2020-07-28T17:05:01Z</time>
      </trkpt>
      <trkpt lat="41.562663" lon="1.224338">
        <ele>537.917</ele>
        <time>2020-07-28T17:07:14Z</time>
      </trkpt>
      <trkpt lat="41.562954" lon="1.225241">
        <ele>541.808</ele>
        <time>2020-07-28T17:08:09Z</time>
      </trkpt>
      <trkpt lat="41.562985" lon="1.225868">
        <ele>545.273</ele>
        <time>2020-07-28T17:08:41Z</time>
      </trkpt>
      <trkpt lat="41.563288" lon="1.226586">
        <ele>549.062</ele>
        <time>2020-07-28T17:09:27Z</time>
      </trkpt>
      <trkpt lat="41.563249" lon="1.227657">
        <ele>552.979</ele>
        <time>2020-07-28T17:10:21Z</time>
      </trkpt>
      <trkpt lat="41.563570" lon="1.229627">
        <ele>550.031</ele>
        <time>2020-07-28T17:12:13Z</time>
      </trkpt>
      <trkpt lat="41.563624" lon="1.231298">
        <ele>555.355</ele>
        <time>2020-07-28T17:13:37Z</time>
      </trkpt>
      <trkpt lat="41.564821" lon="1.234213">
        <ele>566.333</ele>
        <time>2020-07-28T17:17:32Z</time>
      </trkpt>
      <trkpt lat="41.565012" lon="1.235172">
        <ele>564.453</ele>
        <time>2020-07-28T17:20:39Z</time>
      </trkpt>
      <trkpt lat="41.564866" lon="1.235582">
        <ele>562.568</ele>
        <time>2020-07-28T17:22:04Z</time>
      </trkpt>
      <trkpt lat="41.564155" lon="1.235689">
        <ele>559.611</ele>
        <time>2020-07-28T17:22:55Z</time>
      </trkpt>
      <trkpt lat="41.563868" lon="1.235877">
        <ele>555.321</ele>
        <time>2020-07-28T17:24:23Z</time>
      </trkpt>
      <trkpt lat="41.563367" lon="1.235145">
        <ele>548.503</ele>
        <time>2020-07-28T17:26:40Z</time>
      </trkpt>
      <trkpt lat="41.563324" lon="1.235392">
        <ele>562.908</ele>
        <time>2020-07-28T17:28:37Z</time>
      </trkpt>
      <trkpt lat="41.563274" lon="1.235114">
        <ele>560.136</ele>
        <time>2020-07-28T17:29:31Z</time>
      </trkpt>
      <trkpt lat="41.563003" lon="1.235223">
        <ele>565.395</ele>
        <time>2020-07-28T17:29:53Z</time>
      </trkpt>
      <trkpt lat="41.562856" lon="1.235059">
        <ele>569.782</ele>
        <time>2020-07-28T17:30:51Z</time>
      </trkpt>
      <trkpt lat="41.562940" lon="1.235315">
        <ele>571.634</ele>
        <time>2020-07-28T17:33:10Z</time>
      </trkpt>
      <trkpt lat="41.562717" lon="1.234300">
        <ele>567.348</ele>
        <time>2020-07-28T17:34:31Z</time>
      </trkpt>
      <trkpt lat="41.562776" lon="1.232825">
        <ele>562.026</ele>
        <time>2020-07-28T17:37:00Z</time>
      </trkpt>
      <trkpt lat="41.562492" lon="1.232459">
        <ele>563.436</ele>
        <time>2020-07-28T17:37:27Z</time>
      </trkpt>
      <trkpt lat="41.562190" lon="1.232581">
        <ele>562.521</ele>
        <time>2020-07-28T17:38:15Z</time>
      </trkpt>
      <trkpt lat="41.561746" lon="1.232460">
        <ele>567.341</ele>
        <time>2020-07-28T17:38:53Z</time>
      </trkpt>
      <trkpt lat="41.561972" lon="1.232326">
        <ele>572.681</ele>
        <time>2020-07-28T17:39:50Z</time>
      </trkpt>
      <trkpt lat="41.562023" lon="1.232096">
        <ele>573.009</ele>
        <time>2020-07-28T17:40:51Z</time>
      </trkpt>
      <trkpt lat="41.561338" lon="1.231303">
        <ele>587.008</ele>
        <time>2020-07-28T17:42:44Z</time>
      </trkpt>
      <trkpt lat="41.561140" lon="1.230602">
        <ele>601.979</ele>
        <time>2020-07-28T17:44:16Z</time>
      </trkpt>
      <trkpt lat="41.560775" lon="1.230341">
        <ele>614.988</ele>
        <time>2020-07-28T17:46:49Z</time>
      </trkpt>
      <trkpt lat="41.560381" lon="1.229419">
        <ele>621.165</ele>
        <time>2020-07-28T17:48:56Z</time>
      </trkpt>
      <trkpt lat="41.559946" lon="1.229124">
        <ele>617.787</ele>
        <time>2020-07-28T17:50:00Z</time>
      </trkpt>
      <trkpt lat="41.559749" lon="1.228233">
        <ele>620.631</ele>
        <time>2020-07-28T17:50:52Z</time>
      </trkpt>
      <trkpt lat="41.559218" lon="1.227634">
        <ele>620.699</ele>
        <time>2020-07-28T17:51:42Z</time>
      </trkpt>
      <trkpt lat="41.558826" lon="1.225345">
        <ele>605.759</ele>
        <time>2020-07-28T17:53:55Z</time>
      </trkpt>
      <trkpt lat="41.558841" lon="1.224260">
        <ele>601.484</ele>
        <time>2020-07-28T17:54:58Z</time>
      </trkpt>
      <trkpt lat="41.558647" lon="1.223629">
        <ele>601.953</ele>
        <time>2020-07-28T17:55:34Z</time>
      </trkpt>
      <trkpt lat="41.558752" lon="1.221308">
        <ele>598.504</ele>
        <time>2020-07-28T17:57:37Z</time>
      </trkpt>
      <trkpt lat="41.558523" lon="1.220703">
        <ele>595.614</ele>
        <time>2020-07-28T17:58:17Z</time>
      </trkpt>
      <trkpt lat="41.558130" lon="1.220430">
        <ele>589.908</ele>
        <time>2020-07-28T17:58:54Z</time>
      </trkpt>
      <trkpt lat="41.557646" lon="1.220526">
        <ele>584.690</ele>
        <time>2020-07-28T17:59:31Z</time>
      </trkpt>
      <trkpt lat="41.556803" lon="1.221236">
        <ele>593.799</ele>
        <time>2020-07-28T18:00:44Z</time>
      </trkpt>
      <trkpt lat="41.556403" lon="1.221232">
        <ele>594.736</ele>
        <time>2020-07-28T18:01:15Z</time>
      </trkpt>
      <trkpt lat="41.555571" lon="1.221793">
        <ele>591.898</ele>
        <time>2020-07-28T18:02:21Z</time>
      </trkpt>
      <trkpt lat="41.554855" lon="1.221916">
        <ele>581.292</ele>
        <time>2020-07-28T18:03:20Z</time>
      </trkpt>
      <trkpt lat="41.554222" lon="1.222273">
        <ele>581.210</ele>
        <time>2020-07-28T18:04:13Z</time>
      </trkpt>
      <trkpt lat="41.553653" lon="1.222894">
        <ele>582.780</ele>
        <time>2020-07-28T18:06:10Z</time>
      </trkpt>
      <trkpt lat="41.553386" lon="1.223418">
        <ele>582.765</ele>
        <time>2020-07-28T18:07:11Z</time>
      </trkpt>
      <trkpt lat="41.553659" lon="1.223343">
        <ele>581.229</ele>
        <time>2020-07-28T18:07:43Z</time>
      </trkpt>
      <trkpt lat="41.553212" lon="1.224082">
        <ele>590.800</ele>
        <time>2020-07-28T18:08:47Z</time>
      </trkpt>
      <trkpt lat="41.553469" lon="1.224977">
        <ele>580.220</ele>
        <time>2020-07-28T18:09:48Z</time>
      </trkpt>
      <trkpt lat="41.552828" lon="1.225071">
        <ele>588.408</ele>
        <time>2020-07-28T18:10:39Z</time>
      </trkpt>
      <trkpt lat="41.552581" lon="1.225643">
        <ele>591.847</ele>
        <time>2020-07-28T18:11:18Z</time>
      </trkpt>
      <trkpt lat="41.552406" lon="1.226341">
        <ele>598.086</ele>
        <time>2020-07-28T18:11:58Z</time>
      </trkpt>
      <trkpt lat="41.552547" lon="1.227453">
        <ele>595.613</ele>
        <time>2020-07-28T18:13:10Z</time>
      </trkpt>
      <trkpt lat="41.553053" lon="1.228048">
        <ele>602.845</ele>
        <time>2020-07-28T18:14:05Z</time>
      </trkpt>
      <trkpt lat="41.553490" lon="1.228186">
        <ele>609.179</ele>
        <time>2020-07-28T18:14:41Z</time>
      </trkpt>
      <trkpt lat="41.553732" lon="1.228561">
        <ele>615.327</ele>
        <time>2020-07-28T18:15:09Z</time>
      </trkpt>
      <trkpt lat="41.554274" lon="1.228993">
        <ele>626.947</ele>
        <time>2020-07-28T18:16:11Z</time>
      </trkpt>
      <trkpt lat="41.554302" lon="1.228898">
        <ele>628.332</ele>
        <time>2020-07-28T18:17:48Z</time>
      </trkpt>
      <trkpt lat="41.554515" lon="1.229300">
        <ele>629.341</ele>
        <time>2020-07-28T18:20:37Z</time>
      </trkpt>
      <trkpt lat="41.554896" lon="1.229606">
        <ele>630.781</ele>
        <time>2020-07-28T18:21:15Z</time>
      </trkpt>
      <trkpt lat="41.555153" lon="1.230189">
        <ele>623.509</ele>
        <time>2020-07-28T18:22:00Z</time>
      </trkpt>
      <trkpt lat="41.555700" lon="1.230759">
        <ele>641.808</ele>
        <time>2020-07-28T18:23:00Z</time>
      </trkpt>
      <trkpt lat="41.556008" lon="1.231582">
        <ele>641.899</ele>
        <time>2020-07-28T18:24:01Z</time>
      </trkpt>
      <trkpt lat="41.556067" lon="1.232391">
        <ele>656.288</ele>
        <time>2020-07-28T18:24:48Z</time>
      </trkpt>
      <trkpt lat="41.556390" lon="1.231838">
        <ele>662.985</ele>
        <time>2020-07-28T18:25:48Z</time>
      </trkpt>
      <trkpt lat="41.556391" lon="1.232708">
        <ele>669.717</ele>
        <time>2020-07-28T18:28:13Z</time>
      </trkpt>
      <trkpt lat="41.556180" lon="1.233486">
        <ele>676.961</ele>
        <time>2020-07-28T18:29:08Z</time>
      </trkpt>
      <trkpt lat="41.556445" lon="1.233269">
        <ele>678.869</ele>
        <time>2020-07-28T18:29:39Z</time>
      </trkpt>
      <trkpt lat="41.556811" lon="1.233248">
        <ele>685.029</ele>
        <time>2020-07-28T18:30:39Z</time>
      </trkpt>
      <trkpt lat="41.557193" lon="1.235407">
        <ele>640.844</ele>
        <time>2020-07-28T18:35:10Z</time>
      </trkpt>
      <trkpt lat="41.557446" lon="1.235612">
        <ele>638.913</ele>
        <time>2020-07-28T18:35:30Z</time>
      </trkpt>
      <trkpt lat="41.557642" lon="1.236616">
        <ele>636.043</ele>
        <time>2020-07-28T18:36:52Z</time>
      </trkpt>
      <trkpt lat="41.558476" lon="1.236566">
        <ele>643.207</ele>
        <time>2020-07-28T18:38:35Z</time>
      </trkpt>
      <trkpt lat="41.558284" lon="1.237500">
        <ele>662.908</ele>
        <time>2020-07-28T18:42:28Z</time>
      </trkpt>
      <trkpt lat="41.558804" lon="1.237718">
        <ele>665.356</ele>
        <time>2020-07-28T18:47:06Z</time>
      </trkpt>
      <trkpt lat="41.558403" lon="1.237736">
        <ele>668.275</ele>
        <time>2020-07-28T18:49:58Z</time>
      </trkpt>
      <trkpt lat="41.557568" lon="1.238591">
        <ele>675.462</ele>
        <time>2020-07-28T18:51:39Z</time>
      </trkpt>
      <trkpt lat="41.556947" lon="1.239503">
        <ele>686.534</ele>
        <time>2020-07-28T18:53:01Z</time>
      </trkpt>
      <trkpt lat="41.556120" lon="1.242497">
        <ele>696.148</ele>
        <time>2020-07-28T18:56:21Z</time>
      </trkpt>
      <trkpt lat="41.555720" lon="1.243458">
        <ele>704.356</ele>
        <time>2020-07-28T18:57:21Z</time>
      </trkpt>
      <trkpt lat="41.556050" lon="1.244883">
        <ele>717.226</ele>
        <time>2020-07-28T18:59:21Z</time>
      </trkpt>
      <trkpt lat="41.555934" lon="1.246260">
        <ele>721.671</ele>
        <time>2020-07-28T19:00:33Z</time>
      </trkpt>
      <trkpt lat="41.556348" lon="1.246970">
        <ele>729.338</ele>
        <time>2020-07-28T19:01:23Z</time>
      </trkpt>
      <trkpt lat="41.556371" lon="1.247457">
        <ele>732.670</ele>
        <time>2020-07-28T19:01:52Z</time>
      </trkpt>
      <trkpt lat="41.555385" lon="1.248806">
        <ele>739.317</ele>
        <time>2020-07-28T19:03:35Z</time>
      </trkpt>
      <trkpt lat="41.555156" lon="1.250988">
        <ele>738.008</ele>
        <time>2020-08-06T12:08:25Z</time>
      </trkpt>
      <trkpt lat="41.555742" lon="1.250639">
        <ele>734.998</ele>
        <time>2020-08-06T12:09:05Z</time>
      </trkpt>
      <trkpt lat="41.556292" lon="1.250902">
        <ele>723.977</ele>
        <time>2020-08-06T12:10:25Z</time>
      </trkpt>
      <trkpt lat="41.556850" lon="1.250333">
        <ele>718.744</ele>
        <time>2020-08-06T12:11:45Z</time>
      </trkpt>
      <trkpt lat="41.557243" lon="1.250301">
        <ele>709.666</ele>
        <time>2020-08-06T12:12:25Z</time>
      </trkpt>
      <trkpt lat="41.557745" lon="1.249904">
        <ele>701.050</ele>
        <time>2020-08-06T12:13:45Z</time>
      </trkpt>
      <trkpt lat="41.557930" lon="1.249566">
        <ele>695.618</ele>
        <time>2020-08-06T12:14:25Z</time>
      </trkpt>
      <trkpt lat="41.558114" lon="1.247989">
        <ele>694.728</ele>
        <time>2020-08-06T12:17:45Z</time>
      </trkpt>
      <trkpt lat="41.558552" lon="1.246980">
        <ele>686.193</ele>
        <time>2020-08-06T12:19:45Z</time>
      </trkpt>
      <trkpt lat="41.558937" lon="1.246406">
        <ele>684.957</ele>
        <time>2020-08-06T12:22:25Z</time>
      </trkpt>
      <trkpt lat="41.559419" lon="1.246095">
        <ele>682.500</ele>
        <time>2020-08-06T12:23:05Z</time>
      </trkpt>
      <trkpt lat="41.560342" lon="1.245049">
        <ele>673.620</ele>
        <time>2020-08-06T12:25:45Z</time>
      </trkpt>
      <trkpt lat="41.562626" lon="1.237233">
        <ele>580.608</ele>
        <time>2020-08-06T18:11:44Z</time>
      </trkpt>
      <trkpt lat="41.564079" lon="1.237925">
        <ele>566.140</ele>
        <time>2020-08-06T18:13:44Z</time>
      </trkpt>
      <trkpt lat="41.563927" lon="1.237607">
        <ele>564.813</ele>
        <time>2020-08-03T09:01:01Z</time>
      </trkpt>
      <trkpt lat="41.564410" lon="1.238431">
        <ele>577.743</ele>
        <time>2020-08-03T09:01:01Z</time>
      </trkpt>
      <trkpt lat="41.564459" lon="1.238120">
        <ele>574.507</ele>
        <time>2020-08-03T09:01:01Z</time>
      </trkpt>
      <trkpt lat="41.564695" lon="1.237484">
        <ele>578.008</ele>
        <time>2020-08-03T09:01:01Z</time>
      </trkpt>
      <trkpt lat="41.564654" lon="1.237713">
        <ele>577.636</ele>
        <time>2020-08-03T09:01:01Z</time>
      </trkpt>
      <trkpt lat="41.564845" lon="1.236089">
        <ele>575.654</ele>
        <time>2020-08-03T09:01:01Z</time>
      </trkpt>
      <trkpt lat="41.564981" lon="1.235283">
        <ele>570.740</ele>
        <time>2020-08-03T09:01:01Z</time>
      </trkpt>
      <trkpt lat="41.564380" lon="1.232127">
        <ele>592.323</ele>
        <time>2020-08-03T09:01:01Z</time>
      </trkpt>
      <trkpt lat="41.564476" lon="1.232307">
        <ele>597.064</ele>
        <time>2020-08-03T09:01:01Z</time>
      </trkpt>
      <trkpt lat="41.564743" lon="1.231822">
        <ele>603.434</ele>
        <time>2020-08-03T09:01:01Z</time>
      </trkpt>
      <trkpt lat="41.565217" lon="1.231686">
        <ele>614.218</ele>
        <time>2020-08-03T09:01:01Z</time>
      </trkpt>
      <trkpt lat="41.566048" lon="1.231488">
        <ele>639.741</ele>
        <time>2020-08-03T09:01:01Z</time>
      </trkpt>
      <trkpt lat="41.566336" lon="1.231208">
        <ele>648.293</ele>
        <time>2020-08-03T09:01:01Z</time>
      </trkpt>
      <trkpt lat="41.566373" lon="1.230739">
        <ele>653.065</ele>
        <time>2020-08-03T09:01:01Z</time>
      </trkpt>
      <trkpt lat="41.566302" lon="1.230105">
        <ele>655.121</ele>
        <time>2020-08-03T09:01:01Z</time>
      </trkpt>
      <trkpt lat="41.566168" lon="1.229879">
        <ele>653.308</ele>
        <time>2020-08-03T09:01:01Z</time>
      </trkpt>
      <trkpt lat="41.566457" lon="1.229234">
        <ele>664.244</ele>
        <time>2020-08-03T09:01:01Z</time>
      </trkpt>
      <trkpt lat="41.567116" lon="1.228373">
        <ele>661.992</ele>
        <time>2020-08-03T09:01:01Z</time>
      </trkpt>
      <trkpt lat="41.567395" lon="1.228263">
        <ele>659.668</ele>
        <time>2020-08-03T09:01:01Z</time>
      </trkpt>
      <trkpt lat="41.567424" lon="1.228234">
        <ele>659.481</ele>
        <time>2020-08-03T09:01:01Z</time>
      </trkpt>
      <trkpt lat="41.568079" lon="1.227839">
        <ele>666.472</ele>
        <time>2020-08-03T09:01:01Z</time>
      </trkpt>
      <trkpt lat="41.568302" lon="1.227217">
        <ele>668.662</ele>
        <time>2020-08-03T09:01:01Z</time>
      </trkpt>
      <trkpt lat="41.568659" lon="1.226314">
        <ele>672.966</ele>
        <time>2020-08-03T09:01:01Z</time>
      </trkpt>
      <trkpt lat="41.568933" lon="1.225962">
        <ele>672.979</ele>
        <time>2020-08-03T09:01:01Z</time>
      </trkpt>
      <trkpt lat="41.569088" lon="1.225742">
        <ele>670.915</ele>
        <time>2020-08-03T09:01:01Z</time>
      </trkpt>
      <trkpt lat="41.569783" lon="1.224781">
        <ele>662.065</ele>
        <time>2020-08-03T09:01:01Z</time>
      </trkpt>
      <trkpt lat="41.569755" lon="1.224058">
        <ele>662.111</ele>
        <time>2020-08-03T09:01:01Z</time>
      </trkpt>
      <trkpt lat="41.569808" lon="1.223646">
        <ele>663.508</ele>
        <time>2020-08-03T09:01:01Z</time>
      </trkpt>
      <trkpt lat="41.569812" lon="1.223555">
        <ele>663.726</ele>
        <time>2020-08-03T09:01:01Z</time>
      </trkpt>
      <trkpt lat="41.569655" lon="1.219683">
        <ele>653.454</ele>
        <time>2020-08-03T09:01:01Z</time>
      </trkpt>
      <trkpt lat="41.570467" lon="1.219340">
        <ele>652.640</ele>
        <time>2020-08-03T09:01:01Z</time>
      </trkpt>
      <trkpt lat="41.571162" lon="1.218237">
        <ele>642.643</ele>
        <time>2020-08-03T09:01:01Z</time>
      </trkpt>
      <trkpt lat="41.572159" lon="1.217142">
        <ele>641.714</ele>
        <time>2020-08-03T09:01:01Z</time>
      </trkpt>
      <trkpt lat="41.572135" lon="1.217111">
        <ele>641.364</ele>
        <time>2020-08-03T09:01:01Z</time>
      </trkpt>
      <trkpt lat="41.572002" lon="1.216608">
        <ele>635.918</ele>
        <time>2020-08-03T09:01:01Z</time>
      </trkpt>
      <trkpt lat="41.571845" lon="1.215777">
        <ele>629.221</ele>
        <time>2020-08-03T09:01:01Z</time>
      </trkpt>
      <trkpt lat="41.571780" lon="1.215334">
        <ele>628.128</ele>
        <time>2020-08-03T09:01:01Z</time>
      </trkpt>
      <trkpt lat="41.571073" lon="1.214229">
        <ele>625.789</ele>
        <time>2020-08-03T09:01:01Z</time>
      </trkpt>
      <trkpt lat="41.570559" lon="1.212432">
        <ele>621.017</ele>
        <time>2020-08-03T09:01:01Z</time>
      </trkpt>
      <trkpt lat="41.570091" lon="1.211893">
        <ele>617.208</ele>
        <time>2020-08-03T09:01:01Z</time>
      </trkpt>
      <trkpt lat="41.570204" lon="1.213185">
        <ele>612.917</ele>
        <time>2020-08-03T09:01:01Z</time>
      </trkpt>
      <trkpt lat="41.569812" lon="1.212924">
        <ele>606.235</ele>
        <time>2020-08-03T09:01:01Z</time>
      </trkpt>
      <trkpt lat="41.569247" lon="1.212814">
        <ele>600.291</ele>
        <time>2020-08-03T09:01:01Z</time>
      </trkpt>
      <trkpt lat="41.568817" lon="1.211559">
        <ele>592.584</ele>
        <time>2020-08-03T09:01:01Z</time>
      </trkpt>
      <trkpt lat="41.568516" lon="1.211265">
        <ele>587.775</ele>
        <time>2020-08-03T09:01:01Z</time>
      </trkpt>
      <trkpt lat="41.568302" lon="1.211155">
        <ele>584.085</ele>
        <time>2020-08-03T09:01:01Z</time>
      </trkpt>
      <trkpt lat="41.568067" lon="1.211170">
        <ele>583.959</ele>
        <time>2020-08-03T09:01:01Z</time>
      </trkpt>
      <trkpt lat="41.567750" lon="1.211168">
        <ele>581.572</ele>
        <time>2020-08-03T09:01:01Z</time>
      </trkpt>
      <trkpt lat="41.567908" lon="1.210905">
        <ele>575.051</ele>
        <time>2020-08-03T09:01:01Z</time>
      </trkpt>
      <trkpt lat="41.567769" lon="1.210836">
        <ele>570.901</ele>
        <time>2020-08-03T09:01:01Z</time>
      </trkpt>
      <trkpt lat="41.566931" lon="1.210901">
        <ele>553.711</ele>
        <time>2020-08-03T09:01:01Z</time>
      </trkpt>
      <trkpt lat="41.566805" lon="1.211156">
        <ele>554.108</ele>
        <time>2020-08-03T09:01:01Z</time>
      </trkpt>
      <trkpt lat="41.566698" lon="1.211420">
        <ele>553.750</ele>
        <time>2020-08-03T09:01:01Z</time>
      </trkpt>
      <trkpt lat="41.566411" lon="1.212986">
        <ele>553.268</ele>
        <time>2020-08-03T09:01:01Z</time>
      </trkpt>
      <trkpt lat="41.566069" lon="1.213726">
        <ele>547.834</ele>
        <time>2020-08-03T09:01:01Z</time>
      </trkpt>
      <trkpt lat="41.565097" lon="1.215904">
        <ele>540.537</ele>
        <time>2020-08-03T09:01:01Z</time>
      </trkpt>
      <trkpt lat="41.565174" lon="1.216860">
        <ele>549.578</ele>
        <time>2020-08-03T09:01:01Z</time>
      </trkpt>
      <trkpt lat="41.565155" lon="1.216974">
        <ele>550.758</ele>
        <time>2020-08-03T09:01:01Z</time>
      </trkpt>
      <trkpt lat="41.564687" lon="1.217250">
        <ele>548.052</ele>
        <time>2020-08-03T09:01:01Z</time>
      </trkpt>
      <trkpt lat="41.563389" lon="1.218888">
        <ele>551.285</ele>
        <time>2020-08-03T09:01:01Z</time>
      </trkpt>
      <trkpt lat="41.562931" lon="1.219301">
        <ele>549.995</ele>
        <time>2020-08-03T09:01:01Z</time>
      </trkpt>
      <trkpt lat="41.562378" lon="1.219661">
        <ele>548.449</ele>
        <time>2020-08-03T09:01:01Z</time>
      </trkpt>
      <trkpt lat="41.561911" lon="1.220453">
        <ele>550.723</ele>
        <time>2020-08-03T09:01:01Z</time>
      </trkpt>
      <trkpt lat="41.561628" lon="1.221606">
        <ele>555.208</ele>
        <time>2020-08-03T09:01:01Z</time>
      </trkpt>
      <trkpt lat="41.561713" lon="1.222196">
        <ele>557.734</ele>
        <time>2020-08-03T09:01:01Z</time>
      </trkpt>
      <trkpt lat="41.561847" lon="1.222552">
        <ele>559.352</ele>
        <time>2020-08-03T09:01:01Z</time>
      </trkpt>
      <trkpt lat="41.562205" lon="1.223355">
        <ele>562.748</ele>
        <time>2020-08-03T09:01:01Z</time>
      </trkpt>
      <trkpt lat="41.563288" lon="1.226586">
        <ele>564.951</ele>
        <time>2020-08-03T09:01:01Z</time>
      </trkpt>
      <trkpt lat="41.563249" lon="1.227657">
        <ele>562.792</ele>
        <time>2020-08-03T09:01:01Z</time>
      </trkpt>
      <trkpt lat="41.563434" lon="1.228673">
        <ele>563.582</ele>
        <time>2020-08-03T09:01:01Z</time>
      </trkpt>
      <trkpt lat="41.563453" lon="1.228912">
        <ele>563.996</ele>
        <time>2020-08-03T09:01:01Z</time>
      </trkpt>
      <trkpt lat="41.563640" lon="1.231364">
        <ele>568.219</ele>
        <time>2020-08-03T09:01:01Z</time>
      </trkpt>
      <trkpt lat="41.564865" lon="1.234657">
        <ele>572.191</ele>
        <time>2020-08-03T09:01:01Z</time>
      </trkpt>
      <trkpt lat="41.564867" lon="1.234667">
        <ele>572.081</ele>
        <time>2020-08-03T09:01:01Z</time>
      </trkpt>
      <trkpt lat="41.564851" lon="1.234664">
        <ele>571.819</ele>
        <time>2020-08-03T09:01:01Z</time>
      </trkpt>
      <trkpt lat="41.565012" lon="1.235172">
        <ele>571.108</ele>
        <time>2020-08-03T09:01:01Z</time>
      </trkpt>
      <trkpt lat="41.564880" lon="1.235552">
        <ele>570.144</ele>
        <time>2020-08-03T09:01:01Z</time>
      </trkpt>
      <trkpt lat="41.564820" lon="1.235590">
        <ele>570.152</ele>
        <time>2020-08-03T09:01:01Z</time>
      </trkpt>
      <trkpt lat="41.564749" lon="1.235620">
        <ele>569.958</ele>
        <time>2020-08-03T09:01:01Z</time>
      </trkpt>
      <trkpt lat="41.564039" lon="1.237915">
        <ele>565.674</ele>
        <time>2020-08-06T13:35:46Z</time>
      </trkpt>
      <trkpt lat="41.564384" lon="1.238365">
        <ele>576.356</ele>
        <time>2020-08-06T13:36:26Z</time>
      </trkpt>
      <trkpt lat="41.564440" lon="1.238247">
        <ele>575.721</ele>
        <time>2020-08-06T13:37:06Z</time>
      </trkpt>
      <trkpt lat="41.564537" lon="1.237764">
        <ele>573.908</ele>
        <time>2020-08-06T13:37:46Z</time>
      </trkpt>
      <trkpt lat="41.564725" lon="1.237292">
        <ele>576.982</ele>
        <time>2020-08-06T13:38:26Z</time>
      </trkpt>
      <trkpt lat="41.564797" lon="1.236718">
        <ele>578.261</ele>
        <time>2020-08-06T13:39:06Z</time>
      </trkpt>
      <trkpt lat="41.564825" lon="1.235865">
        <ele>573.468</ele>
        <time>2020-08-06T13:39:46Z</time>
      </trkpt>
      <trkpt lat="41.564809" lon="1.235651">
        <ele>570.850</ele>
        <time>2020-08-06T13:40:26Z</time>
      </trkpt>
      <trkpt lat="41.564488" lon="1.235651">
        <ele>567.897</ele>
        <time>2020-08-06T13:41:06Z</time>
      </trkpt>
      <trkpt lat="41.564031" lon="1.235710">
        <ele>565.555</ele>
        <time>2020-08-06T13:41:46Z</time>
      </trkpt>
      <trkpt lat="41.563878" lon="1.235844">
        <ele>565.043</ele>
        <time>2020-08-06T13:42:26Z</time>
      </trkpt>
      <trkpt lat="41.563842" lon="1.235849">
        <ele>565.153</ele>
        <time>2020-08-06T13:43:06Z</time>
      </trkpt>
      <trkpt lat="41.563593" lon="1.235517">
        <ele>564.245</ele>
        <time>2020-08-06T13:43:46Z</time>
      </trkpt>
      <trkpt lat="41.563393" lon="1.235071">
        <ele>566.347</ele>
        <time>2020-08-06T13:44:26Z</time>
      </trkpt>
      <trkpt lat="41.563373" lon="1.235012">
        <ele>566.511</ele>
        <time>2020-08-06T13:45:06Z</time>
      </trkpt>
      <trkpt lat="41.563348" lon="1.235307">
        <ele>567.808</ele>
        <time>2020-08-06T13:45:46Z</time>
      </trkpt>
      <trkpt lat="41.563310" lon="1.235401">
        <ele>568.969</ele>
        <time>2020-08-06T13:46:26Z</time>
      </trkpt>
      <trkpt lat="41.563256" lon="1.235128">
        <ele>568.948</ele>
        <time>2020-08-06T13:47:06Z</time>
      </trkpt>
      <trkpt lat="41.563043" lon="1.235197">
        <ele>572.875</ele>
        <time>2020-08-06T13:47:46Z</time>
      </trkpt>
      <trkpt lat="41.562919" lon="1.235307">
        <ele>574.727</ele>
        <time>2020-08-06T13:48:26Z</time>
      </trkpt>
      <trkpt lat="41.562855" lon="1.234996">
        <ele>574.184</ele>
        <time>2020-08-06T13:49:06Z</time>
      </trkpt>
      <trkpt lat="41.562791" lon="1.234728">
        <ele>572.942</ele>
        <time>2020-08-06T13:49:46Z</time>
      </trkpt>
      <trkpt lat="41.562682" lon="1.234133">
        <ele>571.680</ele>
        <time>2020-08-06T13:50:26Z</time>
      </trkpt>
      <trkpt lat="41.562770" lon="1.233607">
        <ele>567.080</ele>
        <time>2020-08-06T13:51:06Z</time>
      </trkpt>
      <trkpt lat="41.562754" lon="1.232979">
        <ele>562.189</ele>
        <time>2020-08-06T13:51:46Z</time>
      </trkpt>
      <trkpt lat="41.562799" lon="1.232867">
        <ele>561.006</ele>
        <time>2020-08-06T13:52:26Z</time>
      </trkpt>
      <trkpt lat="41.562554" lon="1.232470">
        <ele>563.226</ele>
        <time>2020-08-06T13:53:06Z</time>
      </trkpt>
      <trkpt lat="41.562349" lon="1.232545">
        <ele>566.208</ele>
        <time>2020-08-06T13:53:46Z</time>
      </trkpt>
      <trkpt lat="41.562213" lon="1.232577">
        <ele>568.173</ele>
        <time>2020-08-06T13:54:26Z</time>
      </trkpt>
      <trkpt lat="41.561964" lon="1.232523">
        <ele>571.682</ele>
        <time>2020-08-06T13:55:06Z</time>
      </trkpt>
      <trkpt lat="41.561767" lon="1.232486">
        <ele>576.639</ele>
        <time>2020-08-06T13:55:46Z</time>
      </trkpt>
      <trkpt lat="41.561703" lon="1.232494">
        <ele>578.281</ele>
        <time>2020-08-06T13:56:26Z</time>
      </trkpt>
      <trkpt lat="41.561815" lon="1.232376">
        <ele>576.618</ele>
        <time>2020-08-06T13:57:06Z</time>
      </trkpt>
      <trkpt lat="41.561936" lon="1.232260">
        <ele>574.036</ele>
        <time>2020-08-06T13:57:46Z</time>
      </trkpt>
      <trkpt lat="41.561996" lon="1.232167">
        <ele>573.424</ele>
        <time>2020-08-06T13:58:26Z</time>
      </trkpt>
      <trkpt lat="41.562022" lon="1.232113">
        <ele>573.344</ele>
        <time>2020-08-06T13:59:06Z</time>
      </trkpt>
      <trkpt lat="41.561881" lon="1.232016">
        <ele>577.486</ele>
        <time>2020-08-06T13:59:46Z</time>
      </trkpt>
      <trkpt lat="41.561809" lon="1.231920">
        <ele>579.960</ele>
        <time>2020-08-06T14:00:26Z</time>
      </trkpt>
      <trkpt lat="41.561667" lon="1.231799">
        <ele>583.526</ele>
        <time>2020-08-06T14:01:06Z</time>
      </trkpt>
      <trkpt lat="41.561566" lon="1.231646">
        <ele>586.708</ele>
        <time>2020-08-06T14:01:46Z</time>
      </trkpt>
      <trkpt lat="41.561380" lon="1.231386">
        <ele>594.433</ele>
        <time>2020-08-06T14:02:26Z</time>
      </trkpt>
      <trkpt lat="41.561313" lon="1.231260">
        <ele>597.982</ele>
        <time>2020-08-06T14:03:06Z</time>
      </trkpt>
      <trkpt lat="41.561173" lon="1.230962">
        <ele>604.259</ele>
        <time>2020-08-06T14:03:46Z</time>
      </trkpt>
      <trkpt lat="41.561069" lon="1.230560">
        <ele>608.061</ele>
        <time>2020-08-06T14:04:26Z</time>
      </trkpt>
      <trkpt lat="41.560936" lon="1.230361">
        <ele>613.068</ele>
        <time>2020-08-06T14:05:06Z</time>
      </trkpt>
      <trkpt lat="41.560828" lon="1.230340">
        <ele>618.426</ele>
        <time>2020-08-06T14:05:46Z</time>
      </trkpt>
      <trkpt lat="41.560739" lon="1.230217">
        <ele>620.174</ele>
        <time>2020-08-06T14:06:26Z</time>
      </trkpt>
      <trkpt lat="41.560567" lon="1.229830">
        <ele>621.254</ele>
        <time>2020-08-06T14:07:06Z</time>
      </trkpt>
      <trkpt lat="41.560491" lon="1.229643">
        <ele>619.727</ele>
        <time>2020-08-06T14:07:46Z</time>
      </trkpt>
      <trkpt lat="41.560210" lon="1.229374">
        <ele>620.568</ele>
        <time>2020-08-06T14:08:26Z</time>
      </trkpt>
      <trkpt lat="41.560021" lon="1.229267">
        <ele>623.014</ele>
        <time>2020-08-06T14:09:06Z</time>
      </trkpt>
      <trkpt lat="41.559880" lon="1.228967">
        <ele>625.208</ele>
        <time>2020-08-06T14:09:46Z</time>
      </trkpt>
      <trkpt lat="41.559840" lon="1.228597">
        <ele>624.027</ele>
        <time>2020-08-06T14:10:26Z</time>
      </trkpt>
      <trkpt lat="41.559784" lon="1.228323">
        <ele>622.666</ele>
        <time>2020-08-06T14:11:06Z</time>
      </trkpt>
      <trkpt lat="41.559668" lon="1.228108">
        <ele>623.363</ele>
        <time>2020-08-06T14:11:46Z</time>
      </trkpt>
      <trkpt lat="41.559475" lon="1.227942">
        <ele>623.935</ele>
        <time>2020-08-06T14:12:26Z</time>
      </trkpt>
      <trkpt lat="41.559306" lon="1.227770">
        <ele>624.372</ele>
        <time>2020-08-06T14:13:06Z</time>
      </trkpt>
      <trkpt lat="41.559142" lon="1.227540">
        <ele>622.750</ele>
        <time>2020-08-06T14:13:46Z</time>
      </trkpt>
      <trkpt lat="41.559138" lon="1.227282">
        <ele>619.038</ele>
        <time>2020-08-06T14:14:26Z</time>
      </trkpt>
      <trkpt lat="41.559078" lon="1.226810">
        <ele>620.578</ele>
        <time>2020-08-06T14:15:06Z</time>
      </trkpt>
      <trkpt lat="41.559118" lon="1.226488">
        <ele>617.563</ele>
        <time>2020-08-06T14:15:46Z</time>
      </trkpt>
      <trkpt lat="41.559106" lon="1.226344">
        <ele>616.644</ele>
        <time>2020-08-06T14:16:26Z</time>
      </trkpt>
      <trkpt lat="41.558989" lon="1.225925">
        <ele>615.818</ele>
        <time>2020-08-06T14:17:06Z</time>
      </trkpt>
      <trkpt lat="41.558865" lon="1.225539">
        <ele>615.608</ele>
        <time>2020-08-06T14:17:46Z</time>
      </trkpt>
      <trkpt lat="41.558805" lon="1.225179">
        <ele>615.291</ele>
        <time>2020-08-06T14:18:26Z</time>
      </trkpt>
      <trkpt lat="41.558865" lon="1.225035">
        <ele>612.940</ele>
        <time>2020-08-06T14:19:06Z</time>
      </trkpt>
      <trkpt lat="41.558865" lon="1.224605">
        <ele>611.487</ele>
        <time>2020-08-06T14:19:46Z</time>
      </trkpt>
      <trkpt lat="41.558777" lon="1.224246">
        <ele>612.319</ele>
        <time>2020-08-06T14:20:26Z</time>
      </trkpt>
      <trkpt lat="41.558652" lon="1.223720">
        <ele>613.646</ele>
        <time>2020-08-06T14:21:06Z</time>
      </trkpt>
      <trkpt lat="41.558608" lon="1.223608">
        <ele>615.054</ele>
        <time>2020-08-06T14:21:46Z</time>
      </trkpt>
      <trkpt lat="41.558596" lon="1.223168">
        <ele>612.512</ele>
        <time>2020-08-06T14:22:26Z</time>
      </trkpt>
      <trkpt lat="41.558724" lon="1.222605">
        <ele>609.192</ele>
        <time>2020-08-06T14:23:06Z</time>
      </trkpt>
      <trkpt lat="41.558773" lon="1.222331">
        <ele>606.153</ele>
        <time>2020-08-06T14:23:46Z</time>
      </trkpt>
      <trkpt lat="41.558720" lon="1.222041">
        <ele>606.604</ele>
        <time>2020-08-06T14:24:26Z</time>
      </trkpt>
      <trkpt lat="41.558708" lon="1.221532">
        <ele>605.514</ele>
        <time>2020-08-06T14:25:06Z</time>
      </trkpt>
      <trkpt lat="41.558732" lon="1.221274">
        <ele>604.208</ele>
        <time>2020-08-06T14:25:46Z</time>
      </trkpt>
      <trkpt lat="41.558664" lon="1.220899">
        <ele>604.040</ele>
        <time>2020-08-06T14:26:26Z</time>
      </trkpt>
      <trkpt lat="41.558463" lon="1.220673">
        <ele>605.479</ele>
        <time>2020-08-06T14:27:06Z</time>
      </trkpt>
      <trkpt lat="41.558154" lon="1.220427">
        <ele>601.926</ele>
        <time>2020-08-06T14:27:46Z</time>
      </trkpt>
      <trkpt lat="41.557725" lon="1.220400">
        <ele>597.848</ele>
        <time>2020-08-06T14:28:26Z</time>
      </trkpt>
      <trkpt lat="41.557552" lon="1.220512">
        <ele>599.235</ele>
        <time>2020-08-06T14:29:06Z</time>
      </trkpt>
      <trkpt lat="41.557299" lon="1.220641">
        <ele>600.633</ele>
        <time>2020-08-06T14:29:46Z</time>
      </trkpt>
      <trkpt lat="41.557147" lon="1.220845">
        <ele>604.971</ele>
        <time>2020-08-06T14:30:26Z</time>
      </trkpt>
      <trkpt lat="41.556950" lon="1.221038">
        <ele>606.271</ele>
        <time>2020-08-06T14:31:06Z</time>
      </trkpt>
      <trkpt lat="41.556862" lon="1.221054">
        <ele>604.977</ele>
        <time>2020-08-06T14:31:46Z</time>
      </trkpt>
      <trkpt lat="41.556256" lon="1.221312">
        <ele>601.561</ele>
        <time>2020-08-06T14:32:26Z</time>
      </trkpt>
      <trkpt lat="41.556139" lon="1.221365">
        <ele>601.527</ele>
        <time>2020-08-06T14:33:06Z</time>
      </trkpt>
      <trkpt lat="41.555842" lon="1.221639">
        <ele>604.208</ele>
        <time>2020-08-06T14:33:46Z</time>
      </trkpt>
      <trkpt lat="41.555690" lon="1.221714">
        <ele>603.442</ele>
        <time>2020-08-06T14:34:26Z</time>
      </trkpt>
      <trkpt lat="41.555361" lon="1.221752">
        <ele>596.061</ele>
        <time>2020-08-06T14:35:06Z</time>
      </trkpt>
      <trkpt lat="41.555144" lon="1.221784">
        <ele>591.358</ele>
        <time>2020-08-06T14:35:46Z</time>
      </trkpt>
      <trkpt lat="41.555059" lon="1.221757">
        <ele>588.160</ele>
        <time>2020-08-06T14:36:26Z</time>
      </trkpt>
      <trkpt lat="41.554875" lon="1.221870">
        <ele>588.377</ele>
        <time>2020-08-06T14:37:06Z</time>
      </trkpt>
      <trkpt lat="41.554706" lon="1.221945">
        <ele>586.895</ele>
        <time>2020-08-06T14:37:46Z</time>
      </trkpt>
      <trkpt lat="41.554598" lon="1.222004">
        <ele>586.913</ele>
        <time>2020-08-06T14:38:26Z</time>
      </trkpt>
      <trkpt lat="41.554393" lon="1.222100">
        <ele>585.093</ele>
        <time>2020-08-06T14:39:06Z</time>
      </trkpt>
      <trkpt lat="41.554200" lon="1.222186">
        <ele>582.633</ele>
        <time>2020-08-06T14:39:46Z</time>
      </trkpt>
      <trkpt lat="41.554076" lon="1.222390">
        <ele>585.423</ele>
        <time>2020-08-06T14:40:26Z</time>
      </trkpt>
      <trkpt lat="41.553735" lon="1.222744">
        <ele>584.415</ele>
        <time>2020-08-06T14:41:06Z</time>
      </trkpt>
      <trkpt lat="41.553550" lon="1.222819">
        <ele>580.308</ele>
        <time>2020-08-06T14:41:46Z</time>
      </trkpt>
      <trkpt lat="41.553165" lon="1.223248">
        <ele>579.388</ele>
        <time>2020-08-06T14:42:26Z</time>
      </trkpt>
      <trkpt lat="41.552960" lon="1.223618">
        <ele>581.117</ele>
        <time>2020-08-06T14:43:06Z</time>
      </trkpt>
      <trkpt lat="41.552920" lon="1.223887">
        <ele>584.674</ele>
        <time>2020-08-06T14:43:46Z</time>
      </trkpt>
      <trkpt lat="41.552908" lon="1.224005">
        <ele>585.386</ele>
        <time>2020-08-06T14:44:26Z</time>
      </trkpt>
      <trkpt lat="41.553048" lon="1.224187">
        <ele>590.973</ele>
        <time>2020-08-06T14:45:06Z</time>
      </trkpt>
      <trkpt lat="41.553153" lon="1.224525">
        <ele>596.221</ele>
        <time>2020-08-06T14:45:46Z</time>
      </trkpt>
      <trkpt lat="41.553076" lon="1.224622">
        <ele>594.679</ele>
        <time>2020-08-06T14:46:26Z</time>
      </trkpt>
      <trkpt lat="41.552896" lon="1.224788">
        <ele>592.689</ele>
        <time>2020-08-06T14:47:06Z</time>
      </trkpt>
      <trkpt lat="41.552896" lon="1.224788">
        <ele>592.674</ele>
        <time>2020-08-06T14:47:46Z</time>
      </trkpt>
      <trkpt lat="41.552896" lon="1.224788">
        <ele>592.656</ele>
        <time>2020-08-06T14:48:26Z</time>
      </trkpt>
      <trkpt lat="41.552827" lon="1.224890">
        <ele>593.021</ele>
        <time>2020-08-06T14:49:06Z</time>
      </trkpt>
      <trkpt lat="41.552687" lon="1.225297">
        <ele>597.408</ele>
        <time>2020-08-06T14:49:46Z</time>
      </trkpt>
      <trkpt lat="41.552494" lon="1.225711">
        <ele>599.772</ele>
        <time>2020-08-06T14:50:26Z</time>
      </trkpt>
      <trkpt lat="41.552466" lon="1.226022">
        <ele>604.431</ele>
        <time>2020-08-06T14:51:06Z</time>
      </trkpt>
      <trkpt lat="41.552362" lon="1.226413">
        <ele>604.828</ele>
        <time>2020-08-06T14:51:46Z</time>
      </trkpt>
      <trkpt lat="41.552358" lon="1.226703">
        <ele>608.290</ele>
        <time>2020-08-06T14:52:26Z</time>
      </trkpt>
      <trkpt lat="41.552334" lon="1.226794">
        <ele>607.927</ele>
        <time>2020-08-06T14:53:06Z</time>
      </trkpt>
      <trkpt lat="41.552362" lon="1.227052">
        <ele>610.735</ele>
        <time>2020-08-06T14:53:46Z</time>
      </trkpt>
      <trkpt lat="41.552318" lon="1.227320">
        <ele>609.053</ele>
        <time>2020-08-06T14:54:26Z</time>
      </trkpt>
      <trkpt lat="41.552410" lon="1.227486">
        <ele>612.553</ele>
        <time>2020-08-06T14:55:06Z</time>
      </trkpt>
      <trkpt lat="41.552727" lon="1.227711">
        <ele>619.661</ele>
        <time>2020-08-06T14:55:46Z</time>
      </trkpt>
      <trkpt lat="41.553052" lon="1.228039">
        <ele>614.521</ele>
        <time>2020-08-06T14:56:26Z</time>
      </trkpt>
      <trkpt lat="41.553422" lon="1.228259">
        <ele>616.013</ele>
        <time>2020-08-06T14:57:06Z</time>
      </trkpt>
      <trkpt lat="41.553759" lon="1.228527">
        <ele>620.808</ele>
        <time>2020-08-06T14:57:46Z</time>
      </trkpt>
      <trkpt lat="41.553795" lon="1.228580">
        <ele>621.281</ele>
        <time>2020-08-06T14:58:26Z</time>
      </trkpt>
      <trkpt lat="41.554200" lon="1.228897">
        <ele>630.970</ele>
        <time>2020-08-06T14:59:06Z</time>
      </trkpt>
      <trkpt lat="41.554497" lon="1.229310">
        <ele>633.767</ele>
        <time>2020-08-06T14:59:46Z</time>
      </trkpt>
      <trkpt lat="41.554658" lon="1.229423">
        <ele>637.779</ele>
        <time>2020-08-06T15:00:26Z</time>
      </trkpt>
      <trkpt lat="41.554971" lon="1.229691">
        <ele>645.476</ele>
        <time>2020-08-06T15:01:06Z</time>
      </trkpt>
      <trkpt lat="41.555128" lon="1.230179">
        <ele>643.284</ele>
        <time>2020-08-06T15:01:46Z</time>
      </trkpt>
      <trkpt lat="41.555308" lon="1.230453">
        <ele>646.242</ele>
        <time>2020-08-06T15:02:26Z</time>
      </trkpt>
      <trkpt lat="41.555585" lon="1.230635">
        <ele>655.412</ele>
        <time>2020-08-06T15:03:06Z</time>
      </trkpt>
      <trkpt lat="41.555674" lon="1.230785">
        <ele>657.292</ele>
        <time>2020-08-06T15:03:46Z</time>
      </trkpt>
      <trkpt lat="41.555754" lon="1.231091">
        <ele>658.073</ele>
        <time>2020-08-06T15:04:26Z</time>
      </trkpt>
      <trkpt lat="41.555923" lon="1.231316">
        <ele>662.420</ele>
        <time>2020-08-06T15:05:06Z</time>
      </trkpt>
      <trkpt lat="41.555991" lon="1.231649">
        <ele>663.008</ele>
        <time>2020-08-06T15:05:46Z</time>
      </trkpt>
      <trkpt lat="41.556063" lon="1.231890">
        <ele>664.074</ele>
        <time>2020-08-06T15:06:26Z</time>
      </trkpt>
      <trkpt lat="41.556027" lon="1.232175">
        <ele>664.013</ele>
        <time>2020-08-06T15:07:06Z</time>
      </trkpt>
      <trkpt lat="41.556099" lon="1.232411">
        <ele>667.110</ele>
        <time>2020-08-06T15:07:46Z</time>
      </trkpt>
      <trkpt lat="41.556163" lon="1.232159">
        <ele>666.982</ele>
        <time>2020-08-06T15:08:26Z</time>
      </trkpt>
      <trkpt lat="41.556300" lon="1.232003">
        <ele>669.829</ele>
        <time>2020-08-06T15:09:06Z</time>
      </trkpt>
      <trkpt lat="41.556348" lon="1.232539">
        <ele>672.627</ele>
        <time>2020-08-06T15:09:46Z</time>
      </trkpt>
      <trkpt lat="41.556356" lon="1.232727">
        <ele>674.145</ele>
        <time>2020-08-06T15:10:26Z</time>
      </trkpt>
      <trkpt lat="41.556256" lon="1.233146">
        <ele>676.455</ele>
        <time>2020-08-06T15:11:06Z</time>
      </trkpt>
      <trkpt lat="41.556179" lon="1.233376">
        <ele>678.197</ele>
        <time>2020-08-06T15:11:46Z</time>
      </trkpt>
      <trkpt lat="41.556167" lon="1.233500">
        <ele>679.823</ele>
        <time>2020-08-06T15:12:26Z</time>
      </trkpt>
      <trkpt lat="41.556340" lon="1.233387">
        <ele>679.425</ele>
        <time>2020-08-06T15:13:06Z</time>
      </trkpt>
      <trkpt lat="41.556497" lon="1.233221">
        <ele>679.708</ele>
        <time>2020-08-06T15:13:46Z</time>
      </trkpt>
      <trkpt lat="41.556834" lon="1.233258">
        <ele>683.864</ele>
        <time>2020-08-06T15:14:26Z</time>
      </trkpt>
      <trkpt lat="41.556938" lon="1.233537">
        <ele>682.253</ele>
        <time>2020-08-06T15:15:06Z</time>
      </trkpt>
      <trkpt lat="41.556946" lon="1.233988">
        <ele>676.260</ele>
        <time>2020-08-06T15:15:46Z</time>
      </trkpt>
      <trkpt lat="41.556950" lon="1.234540">
        <ele>667.852</ele>
        <time>2020-08-06T15:16:26Z</time>
      </trkpt>
      <trkpt lat="41.557002" lon="1.234803">
        <ele>664.589</ele>
        <time>2020-08-06T15:17:06Z</time>
      </trkpt>
      <trkpt lat="41.557075" lon="1.235243">
        <ele>662.757</ele>
        <time>2020-08-06T15:17:46Z</time>
      </trkpt>
      <trkpt lat="41.557163" lon="1.235474">
        <ele>661.225</ele>
        <time>2020-08-06T15:18:26Z</time>
      </trkpt>
      <trkpt lat="41.557488" lon="1.235635">
        <ele>653.355</ele>
        <time>2020-08-06T15:19:06Z</time>
      </trkpt>
      <trkpt lat="41.557504" lon="1.236032">
        <ele>652.239</ele>
        <time>2020-08-06T15:19:46Z</time>
      </trkpt>
      <trkpt lat="41.557621" lon="1.236590">
        <ele>650.901</ele>
        <time>2020-08-06T15:20:26Z</time>
      </trkpt>
      <trkpt lat="41.557805" lon="1.236579">
        <ele>648.221</ele>
        <time>2020-08-06T15:21:06Z</time>
      </trkpt>
      <trkpt lat="41.558158" lon="1.236536">
        <ele>645.508</ele>
        <time>2020-08-06T15:21:46Z</time>
      </trkpt>
      <trkpt lat="41.558459" lon="1.236595">
        <ele>647.418</ele>
        <time>2020-08-06T15:22:26Z</time>
      </trkpt>
      <trkpt lat="41.558500" lon="1.236761">
        <ele>650.427</ele>
        <time>2020-08-06T15:23:06Z</time>
      </trkpt>
      <trkpt lat="41.558447" lon="1.236933">
        <ele>653.874</ele>
        <time>2020-08-06T15:23:46Z</time>
      </trkpt>
      <trkpt lat="41.558235" lon="1.237051">
        <ele>656.276</ele>
        <time>2020-08-06T15:24:26Z</time>
      </trkpt>
      <trkpt lat="41.558251" lon="1.237357">
        <ele>661.633</ele>
        <time>2020-08-06T15:25:06Z</time>
      </trkpt>
      <trkpt lat="41.558319" lon="1.237464">
        <ele>663.421</ele>
        <time>2020-08-06T15:25:46Z</time>
      </trkpt>
      <trkpt lat="41.558656" lon="1.237555">
        <ele>664.259</ele>
        <time>2020-08-06T15:26:26Z</time>
      </trkpt>
      <trkpt lat="41.558744" lon="1.237625">
        <ele>664.489</ele>
        <time>2020-08-06T15:27:06Z</time>
      </trkpt>
      <trkpt lat="41.558793" lon="1.237732">
        <ele>665.023</ele>
        <time>2020-08-06T15:27:46Z</time>
      </trkpt>
      <trkpt lat="41.558821" lon="1.237733">
        <ele>664.983</ele>
        <time>2020-08-04T18:09:46Z</time>
      </trkpt>
      <trkpt lat="41.558812" lon="1.237796">
        <ele>664.911</ele>
        <time>2020-08-04T18:10:01Z</time>
      </trkpt>
      <trkpt lat="41.558794" lon="1.237852">
        <ele>664.908</ele>
        <time>2020-08-04T18:10:10Z</time>
      </trkpt>
      <trkpt lat="41.558780" lon="1.237910">
        <ele>664.997</ele>
        <time>2020-08-04T18:10:16Z</time>
      </trkpt>
      <trkpt lat="41.558759" lon="1.237968">
        <ele>664.926</ele>
        <time>2020-08-04T18:10:21Z</time>
      </trkpt>
      <trkpt lat="41.558730" lon="1.238034">
        <ele>664.973</ele>
        <time>2020-08-04T18:10:25Z</time>
      </trkpt>
      <trkpt lat="41.558721" lon="1.238101">
        <ele>664.945</ele>
        <time>2020-08-04T18:10:29Z</time>
      </trkpt>
      <trkpt lat="41.558714" lon="1.238166">
        <ele>664.972</ele>
        <time>2020-08-04T18:10:32Z</time>
      </trkpt>
      <trkpt lat="41.558708" lon="1.238226">
        <ele>664.980</ele>
        <time>2020-08-04T18:10:35Z</time>
      </trkpt>
      <trkpt lat="41.558701" lon="1.238290">
        <ele>664.938</ele>
        <time>2020-08-04T18:10:37Z</time>
      </trkpt>
      <trkpt lat="41.558687" lon="1.238359">
        <ele>664.928</ele>
        <time>2020-08-04T18:10:41Z</time>
      </trkpt>
      <trkpt lat="41.558678" lon="1.238434">
        <ele>664.961</ele>
        <time>2020-08-04T18:10:45Z</time>
      </trkpt>
      <trkpt lat="41.558675" lon="1.238496">
        <ele>664.921</ele>
        <time>2020-08-04T18:10:50Z</time>
      </trkpt>
      <trkpt lat="41.558681" lon="1.238560">
        <ele>664.913</ele>
        <time>2020-08-04T18:10:53Z</time>
      </trkpt>
      <trkpt lat="41.558651" lon="1.238635">
        <ele>664.908</ele>
        <time>2020-08-04T18:10:57Z</time>
      </trkpt>
      <trkpt lat="41.558625" lon="1.238692">
        <ele>665.361</ele>
        <time>2020-08-04T18:11:01Z</time>
      </trkpt>
      <trkpt lat="41.558622" lon="1.238765">
        <ele>665.860</ele>
        <time>2020-08-04T18:11:05Z</time>
      </trkpt>
      <trkpt lat="41.558614" lon="1.238826">
        <ele>665.857</ele>
        <time>2020-08-04T18:11:11Z</time>
      </trkpt>
      <trkpt lat="41.558608" lon="1.238902">
        <ele>666.489</ele>
        <time>2020-08-04T18:11:15Z</time>
      </trkpt>
      <trkpt lat="41.558591" lon="1.238967">
        <ele>667.576</ele>
        <time>2020-08-04T18:11:19Z</time>
      </trkpt>
      <trkpt lat="41.558579" lon="1.239035">
        <ele>668.284</ele>
        <time>2020-08-04T18:11:24Z</time>
      </trkpt>
      <trkpt lat="41.558570" lon="1.239102">
        <ele>668.822</ele>
        <time>2020-08-04T18:11:28Z</time>
      </trkpt>
      <trkpt lat="41.558563" lon="1.239168">
        <ele>669.022</ele>
        <time>2020-08-04T18:11:33Z</time>
      </trkpt>
      <trkpt lat="41.558545" lon="1.239238">
        <ele>669.559</ele>
        <time>2020-08-04T18:11:38Z</time>
      </trkpt>
      <trkpt lat="41.558536" lon="1.239307">
        <ele>669.003</ele>
        <time>2020-08-04T18:11:43Z</time>
      </trkpt>
      <trkpt lat="41.558535" lon="1.239369">
        <ele>669.323</ele>
        <time>2020-08-04T18:11:47Z</time>
      </trkpt>
      <trkpt lat="41.558525" lon="1.239430">
        <ele>669.708</ele>
        <time>2020-08-04T18:11:51Z</time>
      </trkpt>
      <trkpt lat="41.558505" lon="1.239492">
        <ele>670.090</ele>
        <time>2020-08-04T18:11:55Z</time>
      </trkpt>
      <trkpt lat="41.558493" lon="1.239555">
        <ele>670.229</ele>
        <time>2020-08-04T18:11:58Z</time>
      </trkpt>
      <trkpt lat="41.558481" lon="1.239622">
        <ele>669.836</ele>
        <time>2020-08-04T18:12:02Z</time>
      </trkpt>
      <trkpt lat="41.558493" lon="1.239692">
        <ele>668.888</ele>
        <time>2020-08-04T18:12:06Z</time>
      </trkpt>
      <trkpt lat="41.558502" lon="1.239762">
        <ele>668.275</ele>
        <time>2020-08-04T18:12:10Z</time>
      </trkpt>
      <trkpt lat="41.558508" lon="1.239834">
        <ele>668.333</ele>
        <time>2020-08-04T18:12:15Z</time>
      </trkpt>
      <trkpt lat="41.558512" lon="1.239897">
        <ele>668.591</ele>
        <time>2020-08-04T18:12:18Z</time>
      </trkpt>
      <trkpt lat="41.558512" lon="1.239963">
        <ele>668.071</ele>
        <time>2020-08-04T18:12:22Z</time>
      </trkpt>
      <trkpt lat="41.558524" lon="1.240058">
        <ele>667.313</ele>
        <time>2020-08-04T18:12:26Z</time>
      </trkpt>
      <trkpt lat="41.558527" lon="1.240144">
        <ele>667.443</ele>
        <time>2020-08-04T18:12:29Z</time>
      </trkpt>
      <trkpt lat="41.558537" lon="1.240220">
        <ele>667.107</ele>
        <time>2020-08-04T18:12:32Z</time>
      </trkpt>
      <trkpt lat="41.558553" lon="1.240292">
        <ele>666.808</ele>
        <time>2020-08-04T18:12:36Z</time>
      </trkpt>
      <trkpt lat="41.558568" lon="1.240351">
        <ele>666.766</ele>
        <time>2020-08-04T18:12:39Z</time>
      </trkpt>
      <trkpt lat="41.558598" lon="1.240400">
        <ele>666.745</ele>
        <time>2020-08-04T18:12:43Z</time>
      </trkpt>
      <trkpt lat="41.558651" lon="1.240453">
        <ele>666.292</ele>
        <time>2020-08-04T18:12:47Z</time>
      </trkpt>
      <trkpt lat="41.558690" lon="1.240492">
        <ele>665.864</ele>
        <time>2020-08-04T18:12:51Z</time>
      </trkpt>
      <trkpt lat="41.558732" lon="1.240515">
        <ele>665.581</ele>
        <time>2020-08-04T18:12:54Z</time>
      </trkpt>
      <trkpt lat="41.558783" lon="1.240530">
        <ele>664.619</ele>
        <time>2020-08-04T18:12:58Z</time>
      </trkpt>
      <trkpt lat="41.558829" lon="1.240543">
        <ele>664.587</ele>
        <time>2020-08-04T18:13:01Z</time>
      </trkpt>
      <trkpt lat="41.558878" lon="1.240568">
        <ele>664.597</ele>
        <time>2020-08-04T18:13:04Z</time>
      </trkpt>
      <trkpt lat="41.558923" lon="1.240585">
        <ele>664.593</ele>
        <time>2020-08-04T18:13:07Z</time>
      </trkpt>
      <trkpt lat="41.558943" lon="1.240639">
        <ele>664.565</ele>
        <time>2020-08-04T18:13:27Z</time>
      </trkpt>
      <trkpt lat="41.558985" lon="1.240673">
        <ele>664.521</ele>
        <time>2020-08-04T18:14:36Z</time>
      </trkpt>
      <trkpt lat="41.559029" lon="1.240690">
        <ele>664.508</ele>
        <time>2020-08-04T18:14:41Z</time>
      </trkpt>
      <trkpt lat="41.559077" lon="1.240705">
        <ele>664.584</ele>
        <time>2020-08-04T18:14:46Z</time>
      </trkpt>
      <trkpt lat="41.559120" lon="1.240732">
        <ele>664.533</ele>
        <time>2020-08-04T18:14:50Z</time>
      </trkpt>
      <trkpt lat="41.559169" lon="1.240762">
        <ele>664.550</ele>
        <time>2020-08-04T18:14:55Z</time>
      </trkpt>
      <trkpt lat="41.559217" lon="1.240781">
        <ele>664.542</ele>
        <time>2020-08-04T18:15:00Z</time>
      </trkpt>
      <trkpt lat="41.559270" lon="1.240779">
        <ele>664.589</ele>
        <time>2020-08-04T18:15:04Z</time>
      </trkpt>
      <trkpt lat="41.559316" lon="1.240790">
        <ele>664.577</ele>
        <time>2020-08-04T18:15:08Z</time>
      </trkpt>
      <trkpt lat="41.559363" lon="1.240820">
        <ele>664.535</ele>
        <time>2020-08-04T18:15:12Z</time>
      </trkpt>
      <trkpt lat="41.559411" lon="1.240847">
        <ele>664.525</ele>
        <time>2020-08-04T18:15:16Z</time>
      </trkpt>
      <trkpt lat="41.559457" lon="1.240880">
        <ele>664.551</ele>
        <time>2020-08-04T18:15:20Z</time>
      </trkpt>
      <trkpt lat="41.559499" lon="1.240904">
        <ele>664.501</ele>
        <time>2020-08-04T18:15:25Z</time>
      </trkpt>
      <trkpt lat="41.559544" lon="1.240918">
        <ele>664.511</ele>
        <time>2020-08-04T18:15:29Z</time>
      </trkpt>
      <trkpt lat="41.559587" lon="1.240944">
        <ele>664.508</ele>
        <time>2020-08-04T18:15:34Z</time>
      </trkpt>
      <trkpt lat="41.559637" lon="1.240952">
        <ele>664.580</ele>
        <time>2020-08-04T18:15:38Z</time>
      </trkpt>
      <trkpt lat="41.559686" lon="1.240959">
        <ele>664.549</ele>
        <time>2020-08-04T18:15:42Z</time>
      </trkpt>
      <trkpt lat="41.559733" lon="1.240961">
        <ele>664.526</ele>
        <time>2020-08-04T18:15:47Z</time>
      </trkpt>
      <trkpt lat="41.559768" lon="1.241008">
        <ele>664.538</ele>
        <time>2020-08-04T18:15:52Z</time>
      </trkpt>
      <trkpt lat="41.559801" lon="1.241053">
        <ele>664.565</ele>
        <time>2020-08-04T18:15:57Z</time>
      </trkpt>
      <trkpt lat="41.559847" lon="1.241043">
        <ele>664.563</ele>
        <time>2020-08-04T18:16:04Z</time>
      </trkpt>
      <trkpt lat="41.559894" lon="1.241048">
        <ele>664.561</ele>
        <time>2020-08-04T18:16:10Z</time>
      </trkpt>
      <trkpt lat="41.559941" lon="1.241030">
        <ele>664.591</ele>
        <time>2020-08-04T18:16:16Z</time>
      </trkpt>
      <trkpt lat="41.559959" lon="1.240970">
        <ele>664.565</ele>
        <time>2020-08-04T18:16:21Z</time>
      </trkpt>
      <trkpt lat="41.560008" lon="1.240979">
        <ele>664.568</ele>
        <time>2020-08-04T18:16:29Z</time>
      </trkpt>
      <trkpt lat="41.559974" lon="1.241019">
        <ele>664.514</ele>
        <time>2020-08-04T18:17:29Z</time>
      </trkpt>
      <trkpt lat="41.560013" lon="1.241057">
        <ele>664.508</ele>
        <time>2020-08-04T18:17:42Z</time>
      </trkpt>
      <trkpt lat="41.560038" lon="1.241112">
        <ele>664.591</ele>
        <time>2020-08-04T18:17:48Z</time>
      </trkpt>
      <trkpt lat="41.560069" lon="1.241157">
        <ele>664.510</ele>
        <time>2020-08-04T18:17:57Z</time>
      </trkpt>
      <trkpt lat="41.560071" lon="1.241218">
        <ele>664.577</ele>
        <time>2020-08-04T18:18:03Z</time>
      </trkpt>
      <trkpt lat="41.560064" lon="1.241280">
        <ele>664.559</ele>
        <time>2020-08-04T18:18:08Z</time>
      </trkpt>
      <trkpt lat="41.560057" lon="1.241344">
        <ele>664.516</ele>
        <time>2020-08-04T18:18:13Z</time>
      </trkpt>
      <trkpt lat="41.560064" lon="1.241411">
        <ele>664.564</ele>
        <time>2020-08-04T18:18:18Z</time>
      </trkpt>
      <trkpt lat="41.560084" lon="1.241475">
        <ele>664.572</ele>
        <time>2020-08-04T18:18:22Z</time>
      </trkpt>
      <trkpt lat="41.560096" lon="1.241544">
        <ele>664.572</ele>
        <time>2020-08-04T18:18:26Z</time>
      </trkpt>
      <trkpt lat="41.560095" lon="1.241613">
        <ele>664.568</ele>
        <time>2020-08-04T18:18:30Z</time>
      </trkpt>
      <trkpt lat="41.560100" lon="1.241680">
        <ele>664.542</ele>
        <time>2020-08-04T18:18:34Z</time>
      </trkpt>
      <trkpt lat="41.560115" lon="1.241750">
        <ele>664.526</ele>
        <time>2020-08-04T18:18:37Z</time>
      </trkpt>
      <trkpt lat="41.560128" lon="1.241809">
        <ele>664.508</ele>
        <time>2020-08-04T18:18:40Z</time>
      </trkpt>
      <trkpt lat="41.560142" lon="1.241869">
        <ele>664.581</ele>
        <time>2020-08-04T18:18:45Z</time>
      </trkpt>
      <trkpt lat="41.560153" lon="1.241938">
        <ele>664.540</ele>
        <time>2020-08-04T18:18:49Z</time>
      </trkpt>
      <trkpt lat="41.560159" lon="1.242000">
        <ele>664.597</ele>
        <time>2020-08-04T18:18:52Z</time>
      </trkpt>
      <trkpt lat="41.560170" lon="1.242065">
        <ele>664.539</ele>
        <time>2020-08-04T18:18:55Z</time>
      </trkpt>
      <trkpt lat="41.560187" lon="1.242127">
        <ele>664.586</ele>
        <time>2020-08-04T18:18:59Z</time>
      </trkpt>
      <trkpt lat="41.560202" lon="1.242191">
        <ele>664.594</ele>
        <time>2020-08-04T18:19:03Z</time>
      </trkpt>
      <trkpt lat="41.560217" lon="1.242251">
        <ele>664.512</ele>
        <time>2020-08-04T18:19:07Z</time>
      </trkpt>
      <trkpt lat="41.560232" lon="1.242309">
        <ele>664.552</ele>
        <time>2020-08-04T18:19:11Z</time>
      </trkpt>
      <trkpt lat="41.560239" lon="1.242384">
        <ele>664.533</ele>
        <time>2020-08-04T18:19:16Z</time>
      </trkpt>
      <trkpt lat="41.560243" lon="1.242455">
        <ele>664.523</ele>
        <time>2020-08-04T18:19:20Z</time>
      </trkpt>
      <trkpt lat="41.560245" lon="1.242517">
        <ele>664.515</ele>
        <time>2020-08-04T18:19:24Z</time>
      </trkpt>
      <trkpt lat="41.560242" lon="1.242579">
        <ele>664.508</ele>
        <time>2020-08-04T18:19:28Z</time>
      </trkpt>
      <trkpt lat="41.560241" lon="1.242657">
        <ele>664.528</ele>
        <time>2020-08-04T18:19:32Z</time>
      </trkpt>
      <trkpt lat="41.560249" lon="1.242721">
        <ele>664.557</ele>
        <time>2020-08-04T18:19:36Z</time>
      </trkpt>
      <trkpt lat="41.560262" lon="1.242789">
        <ele>664.564</ele>
        <time>2020-08-04T18:19:40Z</time>
      </trkpt>
      <trkpt lat="41.560276" lon="1.242848">
        <ele>664.526</ele>
        <time>2020-08-04T18:19:44Z</time>
      </trkpt>
      <trkpt lat="41.560295" lon="1.242904">
        <ele>664.583</ele>
        <time>2020-08-04T18:19:48Z</time>
      </trkpt>
      <trkpt lat="41.560318" lon="1.242960">
        <ele>664.511</ele>
        <time>2020-08-04T18:19:51Z</time>
      </trkpt>
      <trkpt lat="41.560346" lon="1.243035">
        <ele>664.519</ele>
        <time>2020-08-04T18:19:55Z</time>
      </trkpt>
      <trkpt lat="41.560363" lon="1.243091">
        <ele>664.569</ele>
        <time>2020-08-04T18:19:58Z</time>
      </trkpt>
      <trkpt lat="41.560376" lon="1.243157">
        <ele>664.519</ele>
        <time>2020-08-04T18:20:01Z</time>
      </trkpt>
      <trkpt lat="41.560386" lon="1.243217">
        <ele>664.509</ele>
        <time>2020-08-04T18:20:04Z</time>
      </trkpt>
      <trkpt lat="41.560399" lon="1.243293">
        <ele>664.519</ele>
        <time>2020-08-04T18:20:07Z</time>
      </trkpt>
      <trkpt lat="41.560409" lon="1.243369">
        <ele>664.508</ele>
        <time>2020-08-04T18:20:11Z</time>
      </trkpt>
      <trkpt lat="41.560419" lon="1.243436">
        <ele>664.586</ele>
        <time>2020-08-04T18:20:14Z</time>
      </trkpt>
      <trkpt lat="41.560429" lon="1.243503">
        <ele>664.575</ele>
        <time>2020-08-04T18:20:17Z</time>
      </trkpt>
      <trkpt lat="41.560437" lon="1.243567">
        <ele>664.562</ele>
        <time>2020-08-04T18:20:20Z</time>
      </trkpt>
      <trkpt lat="41.560447" lon="1.243644">
        <ele>664.564</ele>
        <time>2020-08-04T18:20:23Z</time>
      </trkpt>
      <trkpt lat="41.560456" lon="1.243708">
        <ele>664.521</ele>
        <time>2020-08-04T18:20:26Z</time>
      </trkpt>
      <trkpt lat="41.560463" lon="1.243775">
        <ele>664.589</ele>
        <time>2020-08-04T18:20:30Z</time>
      </trkpt>
      <trkpt lat="41.560466" lon="1.243853">
        <ele>664.537</ele>
        <time>2020-08-04T18:20:33Z</time>
      </trkpt>
      <trkpt lat="41.560469" lon="1.243925">
        <ele>664.547</ele>
        <time>2020-08-04T18:20:35Z</time>
      </trkpt>
      <trkpt lat="41.560474" lon="1.244001">
        <ele>664.568</ele>
        <time>2020-08-04T18:20:38Z</time>
      </trkpt>
      <trkpt lat="41.560474" lon="1.244078">
        <ele>664.542</ele>
        <time>2020-08-04T18:20:41Z</time>
      </trkpt>
      <trkpt lat="41.560470" lon="1.244148">
        <ele>664.526</ele>
        <time>2020-08-04T18:20:45Z</time>
      </trkpt>
      <trkpt lat="41.560462" lon="1.244221">
        <ele>664.508</ele>
        <time>2020-08-04T18:20:49Z</time>
      </trkpt>
      <trkpt lat="41.560452" lon="1.244287">
        <ele>664.551</ele>
        <time>2020-08-04T18:20:52Z</time>
      </trkpt>
      <trkpt lat="41.560445" lon="1.244348">
        <ele>664.580</ele>
        <time>2020-08-04T18:20:55Z</time>
      </trkpt>
      <trkpt lat="41.560437" lon="1.244423">
        <ele>664.557</ele>
        <time>2020-08-04T18:20:59Z</time>
      </trkpt>
      <trkpt lat="41.560422" lon="1.244484">
        <ele>664.559</ele>
        <time>2020-08-04T18:21:02Z</time>
      </trkpt>
      <trkpt lat="41.560409" lon="1.244543">
        <ele>664.586</ele>
        <time>2020-08-04T18:21:05Z</time>
      </trkpt>
      <trkpt lat="41.560393" lon="1.244619">
        <ele>664.524</ele>
        <time>2020-08-04T18:21:08Z</time>
      </trkpt>
      <trkpt lat="41.560379" lon="1.244688">
        <ele>664.582</ele>
        <time>2020-08-04T18:21:11Z</time>
      </trkpt>
      <trkpt lat="41.560365" lon="1.244753">
        <ele>664.522</ele>
        <time>2020-08-04T18:21:15Z</time>
      </trkpt>
      <trkpt lat="41.560349" lon="1.244813">
        <ele>664.528</ele>
        <time>2020-08-04T18:21:18Z</time>
      </trkpt>
      <trkpt lat="41.560327" lon="1.244888">
        <ele>664.589</ele>
        <time>2020-08-04T18:21:21Z</time>
      </trkpt>
      <trkpt lat="41.560298" lon="1.244943">
        <ele>664.517</ele>
        <time>2020-08-04T18:21:26Z</time>
      </trkpt>
      <trkpt lat="41.560262" lon="1.244998">
        <ele>664.508</ele>
        <time>2020-08-04T18:21:30Z</time>
      </trkpt>
      <trkpt lat="41.560226" lon="1.245052">
        <ele>664.537</ele>
        <time>2020-08-04T18:21:34Z</time>
      </trkpt>
      <trkpt lat="41.560185" lon="1.245105">
        <ele>664.536</ele>
        <time>2020-08-04T18:21:38Z</time>
      </trkpt>
      <trkpt lat="41.560143" lon="1.245157">
        <ele>664.563</ele>
        <time>2020-08-04T18:21:41Z</time>
      </trkpt>
      <trkpt lat="41.560107" lon="1.245202">
        <ele>664.595</ele>
        <time>2020-08-04T18:21:45Z</time>
      </trkpt>
      <trkpt lat="41.560076" lon="1.245253">
        <ele>664.522</ele>
        <time>2020-08-04T18:21:50Z</time>
      </trkpt>
      <trkpt lat="41.560085" lon="1.245313">
        <ele>664.580</ele>
        <time>2020-08-04T18:21:54Z</time>
      </trkpt>
      <trkpt lat="41.560128" lon="1.245344">
        <ele>664.538</ele>
        <time>2020-08-04T18:23:07Z</time>
      </trkpt>
      <trkpt lat="41.560314" lon="1.245022">
        <ele>675.128</ele>
        <time>2020-08-06T14:10:54Z</time>
      </trkpt>
      <trkpt lat="41.560483" lon="1.244427">
        <ele>668.266</ele>
        <time>2020-08-06T14:11:34Z</time>
      </trkpt>
      <trkpt lat="41.560587" lon="1.243713">
        <ele>664.229</ele>
        <time>2020-08-06T14:12:14Z</time>
      </trkpt>
      <trkpt lat="41.560615" lon="1.243418">
        <ele>661.321</ele>
        <time>2020-08-06T14:12:54Z</time>
      </trkpt>
      <trkpt lat="41.560659" lon="1.243306">
        <ele>658.608</ele>
        <time>2020-08-06T14:13:34Z</time>
      </trkpt>
      <trkpt lat="41.560627" lon="1.243097">
        <ele>660.541</ele>
        <time>2020-08-06T14:14:14Z</time>
      </trkpt>
      <trkpt lat="41.560695" lon="1.242775">
        <ele>658.570</ele>
        <time>2020-08-06T14:14:54Z</time>
      </trkpt>
      <trkpt lat="41.560747" lon="1.242560">
        <ele>656.247</ele>
        <time>2020-08-06T14:15:34Z</time>
      </trkpt>
      <trkpt lat="41.560832" lon="1.242061">
        <ele>646.699</ele>
        <time>2020-08-06T14:16:14Z</time>
      </trkpt>
      <trkpt lat="41.560804" lon="1.241841">
        <ele>644.676</ele>
        <time>2020-08-06T14:16:54Z</time>
      </trkpt>
      <trkpt lat="41.560904" lon="1.241718">
        <ele>638.994</ele>
        <time>2020-08-06T14:17:34Z</time>
      </trkpt>
      <trkpt lat="41.561044" lon="1.241884">
        <ele>634.152</ele>
        <time>2020-08-06T14:18:14Z</time>
      </trkpt>
      <trkpt lat="41.561145" lon="1.241788">
        <ele>627.852</ele>
        <time>2020-08-06T14:18:54Z</time>
      </trkpt>
      <trkpt lat="41.561261" lon="1.241353">
        <ele>622.263</ele>
        <time>2020-08-06T14:19:34Z</time>
      </trkpt>
      <trkpt lat="41.561342" lon="1.241235">
        <ele>618.844</ele>
        <time>2020-08-06T14:20:14Z</time>
      </trkpt>
      <trkpt lat="41.561386" lon="1.240919">
        <ele>615.818</ele>
        <time>2020-08-06T14:20:54Z</time>
      </trkpt>
      <trkpt lat="41.561342" lon="1.240688">
        <ele>618.008</ele>
        <time>2020-08-06T14:21:34Z</time>
      </trkpt>
      <trkpt lat="41.561386" lon="1.240430">
        <ele>617.421</ele>
        <time>2020-08-06T14:22:14Z</time>
      </trkpt>
      <trkpt lat="41.561442" lon="1.240162">
        <ele>618.780</ele>
        <time>2020-08-06T14:22:54Z</time>
      </trkpt>
      <trkpt lat="41.561562" lon="1.239674">
        <ele>615.527</ele>
        <time>2020-08-06T14:23:34Z</time>
      </trkpt>
      <trkpt lat="41.561687" lon="1.239320">
        <ele>608.259</ele>
        <time>2020-08-06T14:24:14Z</time>
      </trkpt>
      <trkpt lat="41.561783" lon="1.239004">
        <ele>605.396</ele>
        <time>2020-08-06T14:24:54Z</time>
      </trkpt>
      <trkpt lat="41.561867" lon="1.238784">
        <ele>603.354</ele>
        <time>2020-08-06T14:25:34Z</time>
      </trkpt>
      <trkpt lat="41.561948" lon="1.238671">
        <ele>601.222</ele>
        <time>2020-08-06T14:26:14Z</time>
      </trkpt>
      <trkpt lat="41.562080" lon="1.238274">
        <ele>596.662</ele>
        <time>2020-08-06T14:26:54Z</time>
      </trkpt>
      <trkpt lat="41.562245" lon="1.237990">
        <ele>590.595</ele>
        <time>2020-08-06T14:27:34Z</time>
      </trkpt>
      <trkpt lat="41.562461" lon="1.237646">
        <ele>581.749</ele>
        <time>2020-08-06T14:28:14Z</time>
      </trkpt>
      <trkpt lat="41.562526" lon="1.237496">
        <ele>580.723</ele>
        <time>2020-08-06T14:28:54Z</time>
      </trkpt>
      <trkpt lat="41.564067" lon="1.237915">
        <ele>565.908</ele>
        <time>2020-08-06T11:53:00Z</time>
      </trkpt>
      <trkpt lat="41.563926" lon="1.237831">
        <ele>564.354</ele>
        <time>2020-08-06T11:53:40Z</time>
      </trkpt>
      <trkpt lat="41.563712" lon="1.237756">
        <ele>566.123</ele>
        <time>2020-08-06T11:54:20Z</time>
      </trkpt>
      <trkpt lat="41.563459" lon="1.237625">
        <ele>570.560</ele>
        <time>2020-08-06T11:55:00Z</time>
      </trkpt>
      <trkpt lat="41.563164" lon="1.237534">
        <ele>573.422</ele>
        <time>2020-08-06T11:55:40Z</time>
      </trkpt>
      <trkpt lat="41.562943" lon="1.237410">
        <ele>576.379</ele>
        <time>2020-08-06T11:56:20Z</time>
      </trkpt>
      <trkpt lat="41.562660" lon="1.237212">
        <ele>580.347</ele>
        <time>2020-08-06T11:57:00Z</time>
      </trkpt>
      <trkpt lat="41.562640" lon="1.237188">
        <ele>580.755</ele>
        <time>2020-08-06T11:57:40Z</time>
      </trkpt>
      <trkpt lat="41.562496" lon="1.237695">
        <ele>580.465</ele>
        <time>2020-08-06T11:58:20Z</time>
      </trkpt>
      <trkpt lat="41.564056" lon="1.237963">
        <ele>555.826</ele>
        <time>2020-08-04T17:43:37Z</time>
      </trkpt>
      <trkpt lat="41.564082" lon="1.237949">
        <ele>555.847</ele>
        <time>2020-08-04T17:50:32Z</time>
      </trkpt>
      <trkpt lat="41.564034" lon="1.237949">
        <ele>555.811</ele>
        <time>2020-08-04T17:50:58Z</time>
      </trkpt>
      <trkpt lat="41.563979" lon="1.237937">
        <ele>555.808</ele>
        <time>2020-08-04T17:51:00Z</time>
      </trkpt>
      <trkpt lat="41.563925" lon="1.237918">
        <ele>555.857</ele>
        <time>2020-08-04T17:51:02Z</time>
      </trkpt>
      <trkpt lat="41.563872" lon="1.237900">
        <ele>555.886</ele>
        <time>2020-08-04T17:51:04Z</time>
      </trkpt>
      <trkpt lat="41.563819" lon="1.237869">
        <ele>555.863</ele>
        <time>2020-08-04T17:51:09Z</time>
      </trkpt>
      <trkpt lat="41.563777" lon="1.237836">
        <ele>555.855</ele>
        <time>2020-08-04T17:51:30Z</time>
      </trkpt>
      <trkpt lat="41.563720" lon="1.237839">
        <ele>555.885</ele>
        <time>2020-08-04T17:51:33Z</time>
      </trkpt>
      <trkpt lat="41.563671" lon="1.237823">
        <ele>555.864</ele>
        <time>2020-08-04T17:51:36Z</time>
      </trkpt>
      <trkpt lat="41.563638" lon="1.237781">
        <ele>555.886</ele>
        <time>2020-08-04T17:51:39Z</time>
      </trkpt>
      <trkpt lat="41.563601" lon="1.237727">
        <ele>555.883</ele>
        <time>2020-08-04T17:51:43Z</time>
      </trkpt>
      <trkpt lat="41.563563" lon="1.237679">
        <ele>555.835</ele>
        <time>2020-08-04T17:51:47Z</time>
      </trkpt>
      <trkpt lat="41.563528" lon="1.237641">
        <ele>555.886</ele>
        <time>2020-08-04T17:51:51Z</time>
      </trkpt>
      <trkpt lat="41.563488" lon="1.237610">
        <ele>555.814</ele>
        <time>2020-08-04T17:51:55Z</time>
      </trkpt>
      <trkpt lat="41.563437" lon="1.237620">
        <ele>556.308</ele>
        <time>2020-08-04T17:52:00Z</time>
      </trkpt>
      <trkpt lat="41.563387" lon="1.237581">
        <ele>556.838</ele>
        <time>2020-08-04T17:52:04Z</time>
      </trkpt>
      <trkpt lat="41.563341" lon="1.237534">
        <ele>557.357</ele>
        <time>2020-08-04T17:52:08Z</time>
      </trkpt>
      <trkpt lat="41.563295" lon="1.237518">
        <ele>557.664</ele>
        <time>2020-08-04T17:52:11Z</time>
      </trkpt>
      <trkpt lat="41.563242" lon="1.237498">
        <ele>558.136</ele>
        <time>2020-08-04T17:52:15Z</time>
      </trkpt>
      <trkpt lat="41.563191" lon="1.237478">
        <ele>558.526</ele>
        <time>2020-08-04T17:52:19Z</time>
      </trkpt>
      <trkpt lat="41.563138" lon="1.237467">
        <ele>559.015</ele>
        <time>2020-08-04T17:52:22Z</time>
      </trkpt>
      <trkpt lat="41.563089" lon="1.237458">
        <ele>559.167</ele>
        <time>2020-08-04T17:52:25Z</time>
      </trkpt>
      <trkpt lat="41.563040" lon="1.237440">
        <ele>559.334</ele>
        <time>2020-08-04T17:52:27Z</time>
      </trkpt>
      <trkpt lat="41.562989" lon="1.237402">
        <ele>559.634</ele>
        <time>2020-08-04T17:52:29Z</time>
      </trkpt>
      <trkpt lat="41.562943" lon="1.237382">
        <ele>559.955</ele>
        <time>2020-08-04T17:52:31Z</time>
      </trkpt>
      <trkpt lat="41.562905" lon="1.237336">
        <ele>560.810</ele>
        <time>2020-08-04T17:52:39Z</time>
      </trkpt>
      <trkpt lat="41.562902" lon="1.237265">
        <ele>560.808</ele>
        <time>2020-08-04T17:52:42Z</time>
      </trkpt>
      <trkpt lat="41.562902" lon="1.237203">
        <ele>560.788</ele>
        <time>2020-08-04T17:52:46Z</time>
      </trkpt>
      <trkpt lat="41.562911" lon="1.237141">
        <ele>560.117</ele>
        <time>2020-08-04T17:52:51Z</time>
      </trkpt>
      <trkpt lat="41.562911" lon="1.237078">
        <ele>559.564</ele>
        <time>2020-08-04T17:52:55Z</time>
      </trkpt>
      <trkpt lat="41.562939" lon="1.237016">
        <ele>559.366</ele>
        <time>2020-08-04T17:52:59Z</time>
      </trkpt>
      <trkpt lat="41.562978" lon="1.236984">
        <ele>559.386</ele>
        <time>2020-08-04T17:53:01Z</time>
      </trkpt>
      <trkpt lat="41.563020" lon="1.236929">
        <ele>559.445</ele>
        <time>2020-08-04T17:53:04Z</time>
      </trkpt>
      <trkpt lat="41.563044" lon="1.236870">
        <ele>559.377</ele>
        <time>2020-08-04T17:53:06Z</time>
      </trkpt>
      <trkpt lat="41.563083" lon="1.236809">
        <ele>558.894</ele>
        <time>2020-08-04T17:53:10Z</time>
      </trkpt>
      <trkpt lat="41.563096" lon="1.236751">
        <ele>559.198</ele>
        <time>2020-08-04T17:53:13Z</time>
      </trkpt>
      <trkpt lat="41.563085" lon="1.236690">
        <ele>560.815</ele>
        <time>2020-08-04T17:53:20Z</time>
      </trkpt>
      <trkpt lat="41.563094" lon="1.236619">
        <ele>562.426</ele>
        <time>2020-08-04T17:53:26Z</time>
      </trkpt>
      <trkpt lat="41.563104" lon="1.236547">
        <ele>562.908</ele>
        <time>2020-08-04T17:53:30Z</time>
      </trkpt>
      <trkpt lat="41.563143" lon="1.236511">
        <ele>563.474</ele>
        <time>2020-08-04T17:53:33Z</time>
      </trkpt>
      <trkpt lat="41.563167" lon="1.236453">
        <ele>564.253</ele>
        <time>2020-08-04T17:53:37Z</time>
      </trkpt>
      <trkpt lat="41.563175" lon="1.236385">
        <ele>565.020</ele>
        <time>2020-08-04T17:53:41Z</time>
      </trkpt>
      <trkpt lat="41.563173" lon="1.236315">
        <ele>566.122</ele>
        <time>2020-08-04T17:53:48Z</time>
      </trkpt>
      <trkpt lat="41.563178" lon="1.236245">
        <ele>566.812</ele>
        <time>2020-08-04T17:53:53Z</time>
      </trkpt>
      <trkpt lat="41.563175" lon="1.236179">
        <ele>567.811</ele>
        <time>2020-08-04T17:53:58Z</time>
      </trkpt>
      <trkpt lat="41.563177" lon="1.236117">
        <ele>567.833</ele>
        <time>2020-08-04T17:54:02Z</time>
      </trkpt>
      <trkpt lat="41.563166" lon="1.236057">
        <ele>568.450</ele>
        <time>2020-08-04T17:54:06Z</time>
      </trkpt>
      <trkpt lat="41.563122" lon="1.236012">
        <ele>568.766</ele>
        <time>2020-08-04T17:54:10Z</time>
      </trkpt>
      <trkpt lat="41.563068" lon="1.236001">
        <ele>569.329</ele>
        <time>2020-08-04T17:54:13Z</time>
      </trkpt>
      <trkpt lat="41.563008" lon="1.235998">
        <ele>569.021</ele>
        <time>2020-08-04T17:54:16Z</time>
      </trkpt>
      <trkpt lat="41.562960" lon="1.235987">
        <ele>568.708</ele>
        <time>2020-08-04T17:54:20Z</time>
      </trkpt>
      <trkpt lat="41.562916" lon="1.235964">
        <ele>569.181</ele>
        <time>2020-08-04T17:54:23Z</time>
      </trkpt>
      <trkpt lat="41.562873" lon="1.235926">
        <ele>570.020</ele>
        <time>2020-08-04T17:54:28Z</time>
      </trkpt>
      <trkpt lat="41.562820" lon="1.235914">
        <ele>570.447</ele>
        <time>2020-08-04T17:54:49Z</time>
      </trkpt>
      <trkpt lat="41.562777" lon="1.235898">
        <ele>570.469</ele>
        <time>2020-08-04T17:54:53Z</time>
      </trkpt>
      <trkpt lat="41.562725" lon="1.235868">
        <ele>570.419</ele>
        <time>2020-08-04T17:55:32Z</time>
      </trkpt>
      <trkpt lat="41.562673" lon="1.235893">
        <ele>570.458</ele>
        <time>2020-08-04T17:55:36Z</time>
      </trkpt>
      <trkpt lat="41.562624" lon="1.235881">
        <ele>570.450</ele>
        <time>2020-08-04T17:55:39Z</time>
      </trkpt>
      <trkpt lat="41.562568" lon="1.235881">
        <ele>570.437</ele>
        <time>2020-08-04T17:55:44Z</time>
      </trkpt>
      <trkpt lat="41.562512" lon="1.235901">
        <ele>570.464</ele>
        <time>2020-08-04T17:55:49Z</time>
      </trkpt>
      <trkpt lat="41.562472" lon="1.235872">
        <ele>570.406</ele>
        <time>2020-08-04T17:55:53Z</time>
      </trkpt>
      <trkpt lat="41.562418" lon="1.235823">
        <ele>570.416</ele>
        <time>2020-08-04T17:55:57Z</time>
      </trkpt>
      <trkpt lat="41.562368" lon="1.235796">
        <ele>570.408</ele>
        <time>2020-08-04T17:56:00Z</time>
      </trkpt>
      <trkpt lat="41.562313" lon="1.235770">
        <ele>570.421</ele>
        <time>2020-08-04T17:56:04Z</time>
      </trkpt>
      <trkpt lat="41.562261" lon="1.235765">
        <ele>570.430</ele>
        <time>2020-08-04T17:56:08Z</time>
      </trkpt>
      <trkpt lat="41.562230" lon="1.235820">
        <ele>570.447</ele>
        <time>2020-08-04T17:56:12Z</time>
      </trkpt>
      <trkpt lat="41.562238" lon="1.235889">
        <ele>570.439</ele>
        <time>2020-08-04T17:56:16Z</time>
      </trkpt>
      <trkpt lat="41.562257" lon="1.235945">
        <ele>570.499</ele>
        <time>2020-08-04T17:56:19Z</time>
      </trkpt>
      <trkpt lat="41.562246" lon="1.236017">
        <ele>570.478</ele>
        <time>2020-08-04T17:56:25Z</time>
      </trkpt>
      <trkpt lat="41.562218" lon="1.236087">
        <ele>570.490</ele>
        <time>2020-08-04T17:56:28Z</time>
      </trkpt>
      <trkpt lat="41.562208" lon="1.236148">
        <ele>570.447</ele>
        <time>2020-08-04T17:56:31Z</time>
      </trkpt>
      <trkpt lat="41.562206" lon="1.236216">
        <ele>570.446</ele>
        <time>2020-08-04T17:56:35Z</time>
      </trkpt>
      <trkpt lat="41.562204" lon="1.236280">
        <ele>570.488</ele>
        <time>2020-08-04T17:56:39Z</time>
      </trkpt>
      <trkpt lat="41.562171" lon="1.236336">
        <ele>570.416</ele>
        <time>2020-08-04T17:56:43Z</time>
      </trkpt>
      <trkpt lat="41.562129" lon="1.236369">
        <ele>570.408</ele>
        <time>2020-08-04T17:56:47Z</time>
      </trkpt>
      <trkpt lat="41.562084" lon="1.236370">
        <ele>570.469</ele>
        <time>2020-08-04T17:56:52Z</time>
      </trkpt>
      <trkpt lat="41.562040" lon="1.236332">
        <ele>570.428</ele>
        <time>2020-08-04T17:56:56Z</time>
      </trkpt>
      <trkpt lat="41.561995" lon="1.236307">
        <ele>570.415</ele>
        <time>2020-08-04T17:56:59Z</time>
      </trkpt>
      <trkpt lat="41.561947" lon="1.236280">
        <ele>570.497</ele>
        <time>2020-08-04T17:57:05Z</time>
      </trkpt>
      <trkpt lat="41.561902" lon="1.236302">
        <ele>570.477</ele>
        <time>2020-08-04T17:57:11Z</time>
      </trkpt>
      <trkpt lat="41.561850" lon="1.236269">
        <ele>570.456</ele>
        <time>2020-08-04T17:57:15Z</time>
      </trkpt>
      <trkpt lat="41.561794" lon="1.236226">
        <ele>570.478</ele>
        <time>2020-08-04T17:57:18Z</time>
      </trkpt>
      <trkpt lat="41.561824" lon="1.236271">
        <ele>570.455</ele>
        <time>2020-08-04T17:57:48Z</time>
      </trkpt>
      <trkpt lat="41.561811" lon="1.236340">
        <ele>570.435</ele>
        <time>2020-08-04T17:57:53Z</time>
      </trkpt>
      <trkpt lat="41.561757" lon="1.236318">
        <ele>570.486</ele>
        <time>2020-08-04T17:57:58Z</time>
      </trkpt>
      <trkpt lat="41.561709" lon="1.236315">
        <ele>570.414</ele>
        <time>2020-08-04T17:58:02Z</time>
      </trkpt>
      <trkpt lat="41.561663" lon="1.236304">
        <ele>570.408</ele>
        <time>2020-08-04T17:58:18Z</time>
      </trkpt>
      <trkpt lat="41.561634" lon="1.236254">
        <ele>570.448</ele>
        <time>2020-08-04T17:58:25Z</time>
      </trkpt>
      <trkpt lat="41.561582" lon="1.236278">
        <ele>570.417</ele>
        <time>2020-08-04T17:58:30Z</time>
      </trkpt>
      <trkpt lat="41.561530" lon="1.236313">
        <ele>570.444</ele>
        <time>2020-08-04T17:58:34Z</time>
      </trkpt>
      <trkpt lat="41.561486" lon="1.236334">
        <ele>570.496</ele>
        <time>2020-08-04T17:58:37Z</time>
      </trkpt>
      <trkpt lat="41.561443" lon="1.236355">
        <ele>570.426</ele>
        <time>2020-08-04T17:58:41Z</time>
      </trkpt>
      <trkpt lat="41.561394" lon="1.236356">
        <ele>570.495</ele>
        <time>2020-08-04T17:58:46Z</time>
      </trkpt>
      <trkpt lat="41.561348" lon="1.236341">
        <ele>570.487</ele>
        <time>2020-08-04T17:58:51Z</time>
      </trkpt>
      <trkpt lat="41.561296" lon="1.236336">
        <ele>570.494</ele>
        <time>2020-08-04T17:58:56Z</time>
      </trkpt>
      <trkpt lat="41.561249" lon="1.236344">
        <ele>570.453</ele>
        <time>2020-08-04T17:59:01Z</time>
      </trkpt>
      <trkpt lat="41.561203" lon="1.236341">
        <ele>570.404</ele>
        <time>2020-08-04T17:59:07Z</time>
      </trkpt>
      <trkpt lat="41.561160" lon="1.236315">
        <ele>570.414</ele>
        <time>2020-08-04T17:59:15Z</time>
      </trkpt>
      <trkpt lat="41.561133" lon="1.236256">
        <ele>570.408</ele>
        <time>2020-08-04T17:59:21Z</time>
      </trkpt>
      <trkpt lat="41.561103" lon="1.236208">
        <ele>570.410</ele>
        <time>2020-08-04T17:59:31Z</time>
      </trkpt>
      <trkpt lat="41.561059" lon="1.236177">
        <ele>570.439</ele>
        <time>2020-08-04T17:59:35Z</time>
      </trkpt>
      <trkpt lat="41.561014" lon="1.236163">
        <ele>570.496</ele>
        <time>2020-08-04T17:59:39Z</time>
      </trkpt>
      <trkpt lat="41.560985" lon="1.236105">
        <ele>570.458</ele>
        <time>2020-08-04T17:59:46Z</time>
      </trkpt>
      <trkpt lat="41.560998" lon="1.236042">
        <ele>570.458</ele>
        <time>2020-08-04T17:59:53Z</time>
      </trkpt>
      <trkpt lat="41.561011" lon="1.235972">
        <ele>570.427</ele>
        <time>2020-08-04T17:59:57Z</time>
      </trkpt>
      <trkpt lat="41.561002" lon="1.235903">
        <ele>570.419</ele>
        <time>2020-08-04T18:00:02Z</time>
      </trkpt>
      <trkpt lat="41.560957" lon="1.235870">
        <ele>570.456</ele>
        <time>2020-08-04T18:00:05Z</time>
      </trkpt>
      <trkpt lat="41.560910" lon="1.235837">
        <ele>570.461</ele>
        <time>2020-08-04T18:00:10Z</time>
      </trkpt>
      <trkpt lat="41.560865" lon="1.235820">
        <ele>570.421</ele>
        <time>2020-08-04T18:00:16Z</time>
      </trkpt>
      <trkpt lat="41.560818" lon="1.235794">
        <ele>570.413</ele>
        <time>2020-08-04T18:00:23Z</time>
      </trkpt>
      <trkpt lat="41.560772" lon="1.235777">
        <ele>570.408</ele>
        <time>2020-08-04T18:00:28Z</time>
      </trkpt>
      <trkpt lat="41.560732" lon="1.235748">
        <ele>570.461</ele>
        <time>2020-08-04T18:00:34Z</time>
      </trkpt>
      <trkpt lat="41.560682" lon="1.235715">
        <ele>570.470</ele>
        <time>2020-08-04T18:00:38Z</time>
      </trkpt>
      <trkpt lat="41.560656" lon="1.235662">
        <ele>570.467</ele>
        <time>2020-08-04T18:00:42Z</time>
      </trkpt>
      <trkpt lat="41.560617" lon="1.235631">
        <ele>570.429</ele>
        <time>2020-08-04T18:00:46Z</time>
      </trkpt>
      <trkpt lat="41.560579" lon="1.235592">
        <ele>570.469</ele>
        <time>2020-08-04T18:00:50Z</time>
      </trkpt>
      <trkpt lat="41.560528" lon="1.235549">
        <ele>570.458</ele>
        <time>2020-08-04T18:00:55Z</time>
      </trkpt>
      <trkpt lat="41.560479" lon="1.235534">
        <ele>570.460</ele>
        <time>2020-08-04T18:00:58Z</time>
      </trkpt>
      <trkpt lat="41.560427" lon="1.235529">
        <ele>570.467</ele>
        <time>2020-08-04T18:01:03Z</time>
      </trkpt>
      <trkpt lat="41.560394" lon="1.235481">
        <ele>570.471</ele>
        <time>2020-08-04T18:01:08Z</time>
      </trkpt>
      <trkpt lat="41.560361" lon="1.235438">
        <ele>570.441</ele>
        <time>2020-08-04T18:01:11Z</time>
      </trkpt>
      <trkpt lat="41.560305" lon="1.235440">
        <ele>570.415</ele>
        <time>2020-08-04T18:01:19Z</time>
      </trkpt>
      <trkpt lat="41.560263" lon="1.235473">
        <ele>570.408</ele>
        <time>2020-08-04T18:01:22Z</time>
      </trkpt>
      <trkpt lat="41.560210" lon="1.235501">
        <ele>570.432</ele>
        <time>2020-08-04T18:01:26Z</time>
      </trkpt>
      <trkpt lat="41.560144" lon="1.235518">
        <ele>570.441</ele>
        <time>2020-08-04T18:01:30Z</time>
      </trkpt>
      <trkpt lat="41.560098" lon="1.235544">
        <ele>570.418</ele>
        <time>2020-08-04T18:01:37Z</time>
      </trkpt>
      <trkpt lat="41.560059" lon="1.235578">
        <ele>570.480</ele>
        <time>2020-08-04T18:01:42Z</time>
      </trkpt>
      <trkpt lat="41.560018" lon="1.235618">
        <ele>570.410</ele>
        <time>2020-08-04T18:01:48Z</time>
      </trkpt>
      <trkpt lat="41.559976" lon="1.235644">
        <ele>570.439</ele>
        <time>2020-08-04T18:01:53Z</time>
      </trkpt>
      <trkpt lat="41.559930" lon="1.235651">
        <ele>570.421</ele>
        <time>2020-08-04T18:01:56Z</time>
      </trkpt>
      <trkpt lat="41.559881" lon="1.235664">
        <ele>570.418</ele>
        <time>2020-08-04T18:01:59Z</time>
      </trkpt>
      <trkpt lat="41.559835" lon="1.235681">
        <ele>570.461</ele>
        <time>2020-08-04T18:02:02Z</time>
      </trkpt>
      <trkpt lat="41.559788" lon="1.235702">
        <ele>570.421</ele>
        <time>2020-08-04T18:02:05Z</time>
      </trkpt>
      <trkpt lat="41.559739" lon="1.235737">
        <ele>570.413</ele>
        <time>2020-08-04T18:02:09Z</time>
      </trkpt>
      <trkpt lat="41.559692" lon="1.235759">
        <ele>570.408</ele>
        <time>2020-08-04T18:02:13Z</time>
      </trkpt>
      <trkpt lat="41.559660" lon="1.235807">
        <ele>570.461</ele>
        <time>2020-08-04T18:02:18Z</time>
      </trkpt>
      <trkpt lat="41.559626" lon="1.235853">
        <ele>570.410</ele>
        <time>2020-08-04T18:02:21Z</time>
      </trkpt>
      <trkpt lat="41.559579" lon="1.235865">
        <ele>570.457</ele>
        <time>2020-08-04T18:02:25Z</time>
      </trkpt>
      <trkpt lat="41.559536" lon="1.235889">
        <ele>570.429</ele>
        <time>2020-08-04T18:02:29Z</time>
      </trkpt>
      <trkpt lat="41.559491" lon="1.235926">
        <ele>570.449</ele>
        <time>2020-08-04T18:02:34Z</time>
      </trkpt>
      <trkpt lat="41.559451" lon="1.235971">
        <ele>570.478</ele>
        <time>2020-08-04T18:02:39Z</time>
      </trkpt>
      <trkpt lat="41.559417" lon="1.236020">
        <ele>570.480</ele>
        <time>2020-08-04T18:02:44Z</time>
      </trkpt>
      <trkpt lat="41.559372" lon="1.236060">
        <ele>570.467</ele>
        <time>2020-08-04T18:02:48Z</time>
      </trkpt>
      <trkpt lat="41.559320" lon="1.236089">
        <ele>570.431</ele>
        <time>2020-08-04T18:02:53Z</time>
      </trkpt>
      <trkpt lat="41.559282" lon="1.236141">
        <ele>570.461</ele>
        <time>2020-08-04T18:02:57Z</time>
      </trkpt>
      <trkpt lat="41.559265" lon="1.236199">
        <ele>570.407</ele>
        <time>2020-08-04T18:03:02Z</time>
      </trkpt>
      <trkpt lat="41.559219" lon="1.236213">
        <ele>570.408</ele>
        <time>2020-08-04T18:03:07Z</time>
      </trkpt>
      <trkpt lat="41.559167" lon="1.236236">
        <ele>570.438</ele>
        <time>2020-08-04T18:03:14Z</time>
      </trkpt>
      <trkpt lat="41.559130" lon="1.236280">
        <ele>570.447</ele>
        <time>2020-08-04T18:03:18Z</time>
      </trkpt>
      <trkpt lat="41.559095" lon="1.236324">
        <ele>570.484</ele>
        <time>2020-08-04T18:03:22Z</time>
      </trkpt>
      <trkpt lat="41.559063" lon="1.236370">
        <ele>570.416</ele>
        <time>2020-08-04T18:03:26Z</time>
      </trkpt>
      <trkpt lat="41.559027" lon="1.236408">
        <ele>570.416</ele>
        <time>2020-08-04T18:03:31Z</time>
      </trkpt>
      <trkpt lat="41.558977" lon="1.236431">
        <ele>570.455</ele>
        <time>2020-08-04T18:03:36Z</time>
      </trkpt>
      <trkpt lat="41.558925" lon="1.236425">
        <ele>570.437</ele>
        <time>2020-08-04T18:03:39Z</time>
      </trkpt>
      <trkpt lat="41.558890" lon="1.236464">
        <ele>570.454</ele>
        <time>2020-08-04T18:03:46Z</time>
      </trkpt>
      <trkpt lat="41.558834" lon="1.236480">
        <ele>570.457</ele>
        <time>2020-08-04T18:03:51Z</time>
      </trkpt>
      <trkpt lat="41.558792" lon="1.236528">
        <ele>570.400</ele>
        <time>2020-08-04T18:03:56Z</time>
      </trkpt>
      <trkpt lat="41.558754" lon="1.236570">
        <ele>570.420</ele>
        <time>2020-08-04T18:03:59Z</time>
      </trkpt>
      <trkpt lat="41.558703" lon="1.236606">
        <ele>570.408</ele>
        <time>2020-08-04T18:04:03Z</time>
      </trkpt>
      <trkpt lat="41.558662" lon="1.236580">
        <ele>570.490</ele>
        <time>2020-08-04T18:04:08Z</time>
      </trkpt>
      <trkpt lat="41.558616" lon="1.236579">
        <ele>570.449</ele>
        <time>2020-08-04T18:04:14Z</time>
      </trkpt>
      <trkpt lat="41.558568" lon="1.236573">
        <ele>570.496</ele>
        <time>2020-08-04T18:04:17Z</time>
      </trkpt>
      <trkpt lat="41.558541" lon="1.236630">
        <ele>570.418</ele>
        <time>2020-08-04T18:04:24Z</time>
      </trkpt>
      <trkpt lat="41.558556" lon="1.236697">
        <ele>570.468</ele>
        <time>2020-08-04T18:05:07Z</time>
      </trkpt>
      <trkpt lat="41.558530" lon="1.236761">
        <ele>570.417</ele>
        <time>2020-08-04T18:05:12Z</time>
      </trkpt>
      <trkpt lat="41.558515" lon="1.236831">
        <ele>570.469</ele>
        <time>2020-08-04T18:05:17Z</time>
      </trkpt>
      <trkpt lat="41.558494" lon="1.236888">
        <ele>570.466</ele>
        <time>2020-08-04T18:05:21Z</time>
      </trkpt>
      <trkpt lat="41.558450" lon="1.236944">
        <ele>570.434</ele>
        <time>2020-08-04T18:05:25Z</time>
      </trkpt>
      <trkpt lat="41.558411" lon="1.236980">
        <ele>570.455</ele>
        <time>2020-08-04T18:05:28Z</time>
      </trkpt>
      <trkpt lat="41.558363" lon="1.237024">
        <ele>570.410</ele>
        <time>2020-08-04T18:05:32Z</time>
      </trkpt>
      <trkpt lat="41.558334" lon="1.237091">
        <ele>570.408</ele>
        <time>2020-08-04T18:05:37Z</time>
      </trkpt>
      <trkpt lat="41.558301" lon="1.237135">
        <ele>570.478</ele>
        <time>2020-08-04T18:05:41Z</time>
      </trkpt>
      <trkpt lat="41.558304" lon="1.237210">
        <ele>570.487</ele>
        <time>2020-08-04T18:05:46Z</time>
      </trkpt>
      <trkpt lat="41.558280" lon="1.237272">
        <ele>570.454</ele>
        <time>2020-08-04T18:05:50Z</time>
      </trkpt>
      <trkpt lat="41.558262" lon="1.237328">
        <ele>570.446</ele>
        <time>2020-08-04T18:05:54Z</time>
      </trkpt>
      <trkpt lat="41.558256" lon="1.237388">
        <ele>570.456</ele>
        <time>2020-08-04T18:05:59Z</time>
      </trkpt>
      <trkpt lat="41.558286" lon="1.237447">
        <ele>570.425</ele>
        <time>2020-08-04T18:06:05Z</time>
      </trkpt>
      <trkpt lat="41.558333" lon="1.237444">
        <ele>570.467</ele>
        <time>2020-08-04T18:06:07Z</time>
      </trkpt>
      <trkpt lat="41.558394" lon="1.237431">
        <ele>570.424</ele>
        <time>2020-08-04T18:06:10Z</time>
      </trkpt>
      <trkpt lat="41.558447" lon="1.237424">
        <ele>570.414</ele>
        <time>2020-08-04T18:06:13Z</time>
      </trkpt>
      <trkpt lat="41.558501" lon="1.237435">
        <ele>570.454</ele>
        <time>2020-08-04T18:06:17Z</time>
      </trkpt>
      <trkpt lat="41.558543" lon="1.237463">
        <ele>570.409</ele>
        <time>2020-08-04T18:06:22Z</time>
      </trkpt>
      <trkpt lat="41.558574" lon="1.237510">
        <ele>570.408</ele>
        <time>2020-08-04T18:06:26Z</time>
      </trkpt>
      <trkpt lat="41.558625" lon="1.237530">
        <ele>570.446</ele>
        <time>2020-08-04T18:06:31Z</time>
      </trkpt>
      <trkpt lat="41.558674" lon="1.237518">
        <ele>570.415</ele>
        <time>2020-08-04T18:06:35Z</time>
      </trkpt>
      <trkpt lat="41.558726" lon="1.237516">
        <ele>570.412</ele>
        <time>2020-08-04T18:06:39Z</time>
      </trkpt>
      <trkpt lat="41.558771" lon="1.237546">
        <ele>570.464</ele>
        <time>2020-08-04T18:06:44Z</time>
      </trkpt>
      <trkpt lat="41.558814" lon="1.237568">
        <ele>570.454</ele>
        <time>2020-08-04T18:06:47Z</time>
      </trkpt>
      <trkpt lat="41.558830" lon="1.237627">
        <ele>570.483</ele>
        <time>2020-08-04T18:06:52Z</time>
      </trkpt>
      <trkpt lat="41.558826" lon="1.237694">
        <ele>570.485</ele>
        <time>2020-08-04T18:06:56Z</time>
      </trkpt>
      <trkpt lat="41.558856" lon="1.237743">
        <ele>570.492</ele>
        <time>2020-08-04T18:07:01Z</time>
      </trkpt>
      <trkpt lat="41.558700" lon="1.237732">
        <ele>665.482</ele>
        <time>2020-08-06T13:08:04Z</time>
      </trkpt>
      <trkpt lat="41.558443" lon="1.237743">
        <ele>666.343</ele>
        <time>2020-08-06T13:08:44Z</time>
      </trkpt>
      <trkpt lat="41.558138" lon="1.238097">
        <ele>671.817</ele>
        <time>2020-08-06T13:09:24Z</time>
      </trkpt>
      <trkpt lat="41.557721" lon="1.238483">
        <ele>679.208</ele>
        <time>2020-08-06T13:10:04Z</time>
      </trkpt>
      <trkpt lat="41.557376" lon="1.238859">
        <ele>683.623</ele>
        <time>2020-08-06T13:10:44Z</time>
      </trkpt>
      <trkpt lat="41.556942" lon="1.239535">
        <ele>685.962</ele>
        <time>2020-08-06T13:11:24Z</time>
      </trkpt>
      <trkpt lat="41.556894" lon="1.239878">
        <ele>688.759</ele>
        <time>2020-08-06T13:12:04Z</time>
      </trkpt>
      <trkpt lat="41.556372" lon="1.241326">
        <ele>693.691</ele>
        <time>2020-08-06T13:12:44Z</time>
      </trkpt>
      <trkpt lat="41.556220" lon="1.242131">
        <ele>700.721</ele>
        <time>2020-08-06T13:13:24Z</time>
      </trkpt>
      <trkpt lat="41.556147" lon="1.242442">
        <ele>704.030</ele>
        <time>2020-08-06T13:14:04Z</time>
      </trkpt>
      <trkpt lat="41.555722" lon="1.243429">
        <ele>709.592</ele>
        <time>2020-08-06T13:14:44Z</time>
      </trkpt>
      <trkpt lat="41.555754" lon="1.243697">
        <ele>711.979</ele>
        <time>2020-08-06T13:15:24Z</time>
      </trkpt>
      <trkpt lat="41.555858" lon="1.244062">
        <ele>715.552</ele>
        <time>2020-08-06T13:16:04Z</time>
      </trkpt>
      <trkpt lat="41.556011" lon="1.244760">
        <ele>718.553</ele>
        <time>2020-08-06T13:16:44Z</time>
      </trkpt>
      <trkpt lat="41.555995" lon="1.245081">
        <ele>719.608</ele>
        <time>2020-08-06T13:17:24Z</time>
      </trkpt>
      <trkpt lat="41.555955" lon="1.245489">
        <ele>721.408</ele>
        <time>2020-08-06T13:18:04Z</time>
      </trkpt>
      <trkpt lat="41.555923" lon="1.246186">
        <ele>725.520</ele>
        <time>2020-08-06T13:18:44Z</time>
      </trkpt>
      <trkpt lat="41.555971" lon="1.246358">
        <ele>727.719</ele>
        <time>2020-08-06T13:19:24Z</time>
      </trkpt>
      <trkpt lat="41.556340" lon="1.247013">
        <ele>733.216</ele>
        <time>2020-08-06T13:20:04Z</time>
      </trkpt>
      <trkpt lat="41.556340" lon="1.247452">
        <ele>735.748</ele>
        <time>2020-08-06T13:20:44Z</time>
      </trkpt>
      <trkpt lat="41.556155" lon="1.247807">
        <ele>737.248</ele>
        <time>2020-08-06T13:21:24Z</time>
      </trkpt>
      <trkpt lat="41.555955" lon="1.248139">
        <ele>738.317</ele>
        <time>2020-08-06T13:22:04Z</time>
      </trkpt>
      <trkpt lat="41.555642" lon="1.248429">
        <ele>738.229</ele>
        <time>2020-08-06T13:22:44Z</time>
      </trkpt>
      <trkpt lat="41.555489" lon="1.248579">
        <ele>738.036</ele>
        <time>2020-08-06T13:23:24Z</time>
      </trkpt>
      <trkpt lat="41.555272" lon="1.249137">
        <ele>739.853</ele>
        <time>2020-08-06T13:24:04Z</time>
      </trkpt>
      <trkpt lat="41.555248" lon="1.249534">
        <ele>740.004</ele>
        <time>2020-08-06T13:24:44Z</time>
      </trkpt>
      <trkpt lat="41.555248" lon="1.250188">
        <ele>741.914</ele>
        <time>2020-08-06T13:25:24Z</time>
      </trkpt>
      <trkpt lat="41.555168" lon="1.250575">
        <ele>740.308</ele>
        <time>2020-08-06T13:26:04Z</time>
      </trkpt>
      <trkpt lat="41.555088" lon="1.250929">
        <ele>738.850</ele>
        <time>2020-08-06T13:26:44Z</time>
      </trkpt>
      <trkpt lat="41.555071" lon="1.250961">
        <ele>739.139</ele>
        <time>2020-08-06T13:46:44Z</time>
      </trkpt>
      <trkpt lat="41.555441" lon="1.250886">
        <ele>736.146</ele>
        <time>2020-08-06T13:47:24Z</time>
      </trkpt>
      <trkpt lat="41.555738" lon="1.250628">
        <ele>735.048</ele>
        <time>2020-08-06T13:48:04Z</time>
      </trkpt>
      <trkpt lat="41.556260" lon="1.250875">
        <ele>724.918</ele>
        <time>2020-08-06T13:48:44Z</time>
      </trkpt>
      <trkpt lat="41.556878" lon="1.250317">
        <ele>718.177</ele>
        <time>2020-08-06T13:49:24Z</time>
      </trkpt>
      <trkpt lat="41.557251" lon="1.250301">
        <ele>709.539</ele>
        <time>2020-08-06T13:50:04Z</time>
      </trkpt>
      <trkpt lat="41.557376" lon="1.250156">
        <ele>709.166</ele>
        <time>2020-08-06T13:50:44Z</time>
      </trkpt>
      <trkpt lat="41.557645" lon="1.249974">
        <ele>703.999</ele>
        <time>2020-08-06T13:51:24Z</time>
      </trkpt>
      <trkpt lat="41.557785" lon="1.249845">
        <ele>699.807</ele>
        <time>2020-08-06T13:52:04Z</time>
      </trkpt>
      <trkpt lat="41.557918" lon="1.249555">
        <ele>696.027</ele>
        <time>2020-08-06T13:52:44Z</time>
      </trkpt>
      <trkpt lat="41.558006" lon="1.249394">
        <ele>692.608</ele>
        <time>2020-08-06T13:53:24Z</time>
      </trkpt>
      <trkpt lat="41.558058" lon="1.249137">
        <ele>689.974</ele>
        <time>2020-08-06T13:54:04Z</time>
      </trkpt>
      <trkpt lat="41.557994" lon="1.248692">
        <ele>694.653</ele>
        <time>2020-08-06T13:54:44Z</time>
      </trkpt>
      <trkpt lat="41.558078" lon="1.248171">
        <ele>694.890</ele>
        <time>2020-08-06T13:55:24Z</time>
      </trkpt>
      <trkpt lat="41.558154" lon="1.247817">
        <ele>694.172</ele>
        <time>2020-08-06T13:56:04Z</time>
      </trkpt>
      <trkpt lat="41.558223" lon="1.247646">
        <ele>692.062</ele>
        <time>2020-08-06T13:56:44Z</time>
      </trkpt>
      <trkpt lat="41.558347" lon="1.247361">
        <ele>688.171</ele>
        <time>2020-08-06T13:57:24Z</time>
      </trkpt>
      <trkpt lat="41.558660" lon="1.246750">
        <ele>685.443</ele>
        <time>2020-08-06T13:58:04Z</time>
      </trkpt>
      <trkpt lat="41.558901" lon="1.246428">
        <ele>685.060</ele>
        <time>2020-08-06T13:58:44Z</time>
      </trkpt>
      <trkpt lat="41.559399" lon="1.246111">
        <ele>682.755</ele>
        <time>2020-08-06T13:59:24Z</time>
      </trkpt>
      <trkpt lat="41.559744" lon="1.245677">
        <ele>677.607</ele>
        <time>2020-08-06T14:00:04Z</time>
      </trkpt>
      <trkpt lat="41.560234" lon="1.245065">
        <ele>677.317</ele>
        <time>2020-08-06T14:00:44Z</time>
      </trkpt>
      <trkpt lat="41.560458" lon="1.244856">
        <ele>669.208</ele>
        <time>2020-08-06T14:01:24Z</time>
      </trkpt>
      <trkpt lat="41.560314" lon="1.245022">
        <ele>675.180</ele>
        <time>2020-08-06T14:10:54Z</time>
      </trkpt>
      <trkpt lat="41.560483" lon="1.244427">
        <ele>668.279</ele>
        <time>2020-08-06T14:11:34Z</time>
      </trkpt>
      <trkpt lat="41.560587" lon="1.243713">
        <ele>664.276</ele>
        <time>2020-08-06T14:12:14Z</time>
      </trkpt>
      <trkpt lat="41.560615" lon="1.243418">
        <ele>661.378</ele>
        <time>2020-08-06T14:12:54Z</time>
      </trkpt>
      <trkpt lat="41.560659" lon="1.243306">
        <ele>658.658</ele>
        <time>2020-08-06T14:13:34Z</time>
      </trkpt>
      <trkpt lat="41.560627" lon="1.243097">
        <ele>660.517</ele>
        <time>2020-08-06T14:14:14Z</time>
      </trkpt>
      <trkpt lat="41.560695" lon="1.242775">
        <ele>658.519</ele>
        <time>2020-08-06T14:14:54Z</time>
      </trkpt>
      <trkpt lat="41.560747" lon="1.242560">
        <ele>656.236</ele>
        <time>2020-08-06T14:15:34Z</time>
      </trkpt>
      <trkpt lat="41.560832" lon="1.242061">
        <ele>646.676</ele>
        <time>2020-08-06T14:16:14Z</time>
      </trkpt>
      <trkpt lat="41.560804" lon="1.241841">
        <ele>644.690</ele>
        <time>2020-08-06T14:16:54Z</time>
      </trkpt>
      <trkpt lat="41.560904" lon="1.241718">
        <ele>638.919</ele>
        <time>2020-08-06T14:17:34Z</time>
      </trkpt>
      <trkpt lat="41.561044" lon="1.241884">
        <ele>634.108</ele>
        <time>2020-08-06T14:18:14Z</time>
      </trkpt>
      <trkpt lat="41.561145" lon="1.241788">
        <ele>627.872</ele>
        <time>2020-08-06T14:18:54Z</time>
      </trkpt>
      <trkpt lat="41.561261" lon="1.241353">
        <ele>622.271</ele>
        <time>2020-08-06T14:19:34Z</time>
      </trkpt>
      <trkpt lat="41.561342" lon="1.241235">
        <ele>618.848</ele>
        <time>2020-08-06T14:20:14Z</time>
      </trkpt>
      <trkpt lat="41.561386" lon="1.240919">
        <ele>615.810</ele>
        <time>2020-08-06T14:20:54Z</time>
      </trkpt>
      <trkpt lat="41.561342" lon="1.240688">
        <ele>618.080</ele>
        <time>2020-08-06T14:21:34Z</time>
      </trkpt>
      <trkpt lat="41.561386" lon="1.240430">
        <ele>617.419</ele>
        <time>2020-08-06T14:22:14Z</time>
      </trkpt>
      <trkpt lat="41.561442" lon="1.240162">
        <ele>618.731</ele>
        <time>2020-08-06T14:22:54Z</time>
      </trkpt>
      <trkpt lat="41.561562" lon="1.239674">
        <ele>615.528</ele>
        <time>2020-08-06T14:23:34Z</time>
      </trkpt>
      <trkpt lat="41.561687" lon="1.239320">
        <ele>608.261</ele>
        <time>2020-08-06T14:24:14Z</time>
      </trkpt>
      <trkpt lat="41.561783" lon="1.239004">
        <ele>605.321</ele>
        <time>2020-08-06T14:24:54Z</time>
      </trkpt>
      <trkpt lat="41.561867" lon="1.238784">
        <ele>603.313</ele>
        <time>2020-08-06T14:25:34Z</time>
      </trkpt>
      <trkpt lat="41.561948" lon="1.238671">
        <ele>601.208</ele>
        <time>2020-08-06T14:26:14Z</time>
      </trkpt>
      <trkpt lat="41.562080" lon="1.238274">
        <ele>596.651</ele>
        <time>2020-08-06T14:26:54Z</time>
      </trkpt>
      <trkpt lat="41.562245" lon="1.237990">
        <ele>590.550</ele>
        <time>2020-08-06T14:27:34Z</time>
      </trkpt>
      <trkpt lat="41.562461" lon="1.237646">
        <ele>581.717</ele>
        <time>2020-08-06T14:28:14Z</time>
      </trkpt>
      <trkpt lat="41.562526" lon="1.237496">
        <ele>580.779</ele>
        <time>2020-08-06T14:28:54Z</time>
      </trkpt>
      <trkpt lat="41.562453" lon="1.237625">
        <ele>582.039</ele>
        <time>2020-08-06T18:11:04Z</time>
      </trkpt>
      <trkpt lat="41.562626" lon="1.237233">
        <ele>580.688</ele>
        <time>2020-08-06T18:11:44Z</time>
      </trkpt>
      <trkpt lat="41.563080" lon="1.237502">
        <ele>573.910</ele>
        <time>2020-08-06T18:12:24Z</time>
      </trkpt>
      <trkpt lat="41.563758" lon="1.237780">
        <ele>565.427</ele>
        <time>2020-08-06T18:13:04Z</time>
      </trkpt>
      <trkpt lat="41.564079" lon="1.237925">
        <ele>566.193</ele>
        <time>2020-08-06T18:13:44Z</time>
      </trkpt>
      <trkpt lat="41.562445" lon="1.237913">
        <ele>581.889</ele>
        <time>2020-08-04T18:33:53Z</time>
      </trkpt>
      <trkpt lat="41.562094" lon="1.238722">
        <ele>581.806</ele>
        <time>2020-08-04T18:34:45Z</time>
      </trkpt>
      <trkpt lat="41.561838" lon="1.241701">
        <ele>580.126</ele>
        <time>2020-08-04T18:37:22Z</time>
      </trkpt>
      <trkpt lat="41.562075" lon="1.242695">
        <ele>576.108</ele>
        <time>2020-08-04T18:38:19Z</time>
      </trkpt>
      <trkpt lat="41.562086" lon="1.243695">
        <ele>576.193</ele>
        <time>2020-08-04T18:39:05Z</time>
      </trkpt>
      <trkpt lat="41.562333" lon="1.244283">
        <ele>576.192</ele>
        <time>2020-08-04T18:39:45Z</time>
      </trkpt>
      <trkpt lat="41.562270" lon="1.247216">
        <ele>576.129</ele>
        <time>2020-08-04T18:43:01Z</time>
      </trkpt>
      <trkpt lat="41.562967" lon="1.250803">
        <ele>576.110</ele>
        <time>2020-08-04T18:46:22Z</time>
      </trkpt>
      <trkpt lat="41.562995" lon="1.253606">
        <ele>576.126</ele>
        <time>2020-08-04T18:48:40Z</time>
      </trkpt>
      <trkpt lat="41.562878" lon="1.254382">
        <ele>576.153</ele>
        <time>2020-08-04T18:49:20Z</time>
      </trkpt>
      <trkpt lat="41.562564" lon="1.255091">
        <ele>576.174</ele>
        <time>2020-08-04T18:50:21Z</time>
      </trkpt>
      <trkpt lat="41.562850" lon="1.255966">
        <ele>576.153</ele>
        <time>2020-08-04T18:51:15Z</time>
      </trkpt>
      <trkpt lat="41.562898" lon="1.256858">
        <ele>576.129</ele>
        <time>2020-08-04T18:52:08Z</time>
      </trkpt>
      <trkpt lat="41.563001" lon="1.257088">
        <ele>576.100</ele>
        <time>2020-08-04T18:52:25Z</time>
      </trkpt>
      <trkpt lat="41.563251" lon="1.257170">
        <ele>576.120</ele>
        <time>2020-08-04T18:52:43Z</time>
      </trkpt>
      <trkpt lat="41.563143" lon="1.257148">
        <ele>576.108</ele>
        <time>2020-08-04T18:52:59Z</time>
      </trkpt>
      <trkpt lat="41.563576" lon="1.256969">
        <ele>576.197</ele>
        <time>2020-08-04T18:55:00Z</time>
      </trkpt>
      <trkpt lat="41.563485" lon="1.255405">
        <ele>576.126</ele>
        <time>2020-08-04T18:56:53Z</time>
      </trkpt>
      <trkpt lat="41.563839" lon="1.254763">
        <ele>576.153</ele>
        <time>2020-08-04T18:57:42Z</time>
      </trkpt>
      <trkpt lat="41.563916" lon="1.254252">
        <ele>576.174</ele>
        <time>2020-08-04T18:58:48Z</time>
      </trkpt>
      <trkpt lat="41.564284" lon="1.253728">
        <ele>576.130</ele>
        <time>2020-08-04T18:59:30Z</time>
      </trkpt>
      <trkpt lat="41.564227" lon="1.253304">
        <ele>576.127</ele>
        <time>2020-08-04T18:59:57Z</time>
      </trkpt>
      <trkpt lat="41.563790" lon="1.253095">
        <ele>576.158</ele>
        <time>2020-08-04T19:00:45Z</time>
      </trkpt>
      <trkpt lat="41.564175" lon="1.251396">
        <ele>576.197</ele>
        <time>2020-08-04T19:02:22Z</time>
      </trkpt>
      <trkpt lat="41.564032" lon="1.249487">
        <ele>576.152</ele>
        <time>2020-08-04T19:04:07Z</time>
      </trkpt>
      <trkpt lat="41.563687" lon="1.247801">
        <ele>576.153</ele>
        <time>2020-08-04T19:05:39Z</time>
      </trkpt>
      <trkpt lat="41.563842" lon="1.247213">
        <ele>576.108</ele>
        <time>2020-08-04T19:06:07Z</time>
      </trkpt>
      <trkpt lat="41.563631" lon="1.245570">
        <ele>576.108</ele>
        <time>2020-08-04T19:07:29Z</time>
      </trkpt>
      <trkpt lat="41.563899" lon="1.243333">
        <ele>576.110</ele>
        <time>2020-08-04T19:09:17Z</time>
      </trkpt>
      <trkpt lat="41.564379" lon="1.242471">
        <ele>576.129</ele>
        <time>2020-08-04T19:10:15Z</time>
      </trkpt>
      <trkpt lat="41.564234" lon="1.242155">
        <ele>576.166</ele>
        <time>2020-08-04T19:10:35Z</time>
      </trkpt>
      <trkpt lat="41.563846" lon="1.242096">
        <ele>576.157</ele>
        <time>2020-08-04T19:11:04Z</time>
      </trkpt>
      <trkpt lat="41.563756" lon="1.241699">
        <ele>576.163</ele>
        <time>2020-08-04T19:11:21Z</time>
      </trkpt>
      <trkpt lat="41.563843" lon="1.240264">
        <ele>576.110</ele>
        <time>2020-08-04T19:12:30Z</time>
      </trkpt>
      <trkpt lat="41.564429" lon="1.238606">
        <ele>576.111</ele>
        <time>2020-08-04T19:14:02Z</time>
      </trkpt>
      <trkpt lat="41.564272" lon="1.237801">
        <ele>576.190</ele>
        <time>2020-08-04T19:16:00Z</time>
      </trkpt>
      <trkpt lat="41.564067" lon="1.237915">
        <ele>565.994</ele>
        <time>2020-08-06T11:53:00Z</time>
      </trkpt>
      <trkpt lat="41.563926" lon="1.237831">
        <ele>564.357</ele>
        <time>2020-08-06T11:53:40Z</time>
      </trkpt>
      <trkpt lat="41.563712" lon="1.237756">
        <ele>566.122</ele>
        <time>2020-08-06T11:54:20Z</time>
      </trkpt>
      <trkpt lat="41.563459" lon="1.237625">
        <ele>570.508</ele>
        <time>2020-08-06T11:55:00Z</time>
      </trkpt>
      <trkpt lat="41.563164" lon="1.237534">
        <ele>573.494</ele>
        <time>2020-08-06T11:55:40Z</time>
      </trkpt>
      <trkpt lat="41.562943" lon="1.237410">
        <ele>576.383</ele>
        <time>2020-08-06T11:56:20Z</time>
      </trkpt>
      <trkpt lat="41.562660" lon="1.237212">
        <ele>580.340</ele>
        <time>2020-08-06T11:57:00Z</time>
      </trkpt>
      <trkpt lat="41.562640" lon="1.237188">
        <ele>580.741</ele>
        <time>2020-08-06T11:57:40Z</time>
      </trkpt>
      <trkpt lat="41.562496" lon="1.237695">
        <ele>580.487</ele>
        <time>2020-08-06T11:58:20Z</time>
      </trkpt>
    </trkseg>
  </trk>
</gpx>
